WEBVTT

00:00:15.882 --> 00:00:20.286 align:center line:74% position:31% size:68%
&gt;&gt; I THINK WE HAVE MADE IT 

00:00:20.286 --> 00:00:21.988 align:center line:74% position:29% size:65%
THROUGH THE WORST OF THIS 

00:00:21.988 --> 00:00:24.991 align:center line:74% position:18% size:45%
SERIES OF STORMS. 

00:00:24.991 --> 00:00:25.892 align:center line:74% position:31% size:68%
EVEN THOUGH THE WEATHER IS 

00:00:25.892 --> 00:00:26.960 align:center line:74% position:36% size:73%
SHIFTING BACK TO OUR REGULAR 

00:00:26.960 --> 00:00:28.361 align:center line:74% position:50% size:80%
PATTERN WE WILL CONTINUE TO SEE 

00:00:28.361 --> 00:00:29.095 align:center line:74% position:18% size:45%
SOME CHALLENGERS. 

00:00:29.095 --> 00:00:31.998 align:center line:74% position:29% size:65%
THE FORECAST IS RETURNING 

00:00:31.998 --> 00:00:32.866 align:center line:74% position:50% size:80%
TOMORROW TO THE TYPICAL SEATTLE 

00:00:32.866 --> 00:00:37.504 align:center line:74% position:50% size:80%
PATTERN OF RAIN BUT WE EXPECTED 

00:00:37.504 --> 00:00:38.671 align:center line:74% position:22% size:55%
TO BE MIXED WITH SNOW 

00:00:38.671 --> 00:00:39.639 align:center line:74% position:24% size:58%
PARTICULARLY AT HIGHER 

00:00:39.639 --> 00:00:42.008 align:center line:74% position:14% size:30%
ELEVATIONS. 

00:00:42.008 --> 00:00:43.410 align:center line:74% position:50% size:80%
AS THE SNOW MELTS WE WILL SEE A 

00:00:43.410 --> 00:00:44.611 align:center line:74% position:33% size:70%
NUMBER OF CHALLENGES IN THE 

00:00:44.611 --> 00:00:46.813 align:center line:74% position:40% size:75%
REGION AS WE TRY TO CLEAR OUT 

00:00:46.813 --> 00:00:47.881 align:center line:74% position:31% size:68%
THE SNOW AND ICE AND SLUSH 

00:00:47.881 --> 00:00:48.815 align:center line:74% position:50% size:80%
INCLUDING MAKING SURE THE STORM 

00:00:48.815 --> 00:00:50.483 align:center line:74% position:44% size:78%
DRAINS CAN KEEP CLEAR SO WE DO 

00:00:50.483 --> 00:00:54.220 align:center line:74% position:33% size:70%
NOT HAVE STANDING WATER AND 

00:00:54.220 --> 00:00:54.988 align:center line:74% position:22% size:55%
FLOODING IN THE AREA. 

00:00:54.988 --> 00:00:56.423 align:center line:74% position:33% size:70%
I KNOW THAT IT HAS NOT BEEN 

00:00:56.423 --> 00:00:57.190 align:center line:74% position:17% size:40%
EASY FOR FOLKS. 

00:00:57.190 --> 00:00:58.425 align:center line:74% position:31% size:68%
I REALLY WANT TO THINK THE 

00:00:58.425 --> 00:01:00.193 align:center line:74% position:50% size:80%
PEOPLE OF SEATTLE IN THIS REGION

00:01:00.193 --> 00:01:05.732 align:center line:74% position:44% size:78%
FOR THEIR PATIENCE AND GETTING 

00:01:05.732 --> 00:01:06.132 align:center line:74% position:15% size:35%
THROUGH THIS. 

00:01:06.132 --> 00:01:07.700 align:center line:74% position:50% size:80%
I ALSO WANT TO THANK PEOPLE FOR 

00:01:07.700 --> 00:01:08.201 align:center line:74% position:15% size:33%
STEPPING UP. 

00:01:08.201 --> 00:01:11.604 align:center line:74% position:33% size:70%
WE HAVE SEEN SO MANY PEOPLE 

00:01:11.604 --> 00:01:12.238 align:center line:74% position:21% size:53%
STEPPING UP IN THEIR 

00:01:12.238 --> 00:01:13.006 align:center line:74% position:44% size:78%
NEIGHBORHOODS AND VOLUNTEERING 

00:01:13.006 --> 00:01:13.339 align:center line:74% position:15% size:33%
AT SHELTERS. 

00:01:13.339 --> 00:01:14.741 align:center line:74% position:50% size:80%
IT IS SHOWING US SEATTLE AT ITS 

00:01:14.741 --> 00:01:15.008 align:center line:74% position:12% size:15%
BEST. 

00:01:15.008 --> 00:01:16.843 align:center line:74% position:50% size:80%
WE HAVE SEEN OFFICIALLY OVER 20 

00:01:16.843 --> 00:01:19.145 align:center line:74% position:44% size:78%
INCHES OF SNOW IN THE MONTH OF 

00:01:19.145 --> 00:01:19.946 align:center line:74% position:25% size:60%
FEBRUARY AND IT IS ONLY 

00:01:19.946 --> 00:01:20.447 align:center line:74% position:15% size:33%
FEBRUARY 12. 

00:01:20.447 --> 00:01:22.949 align:center line:74% position:44% size:78%
IT IS A RECORD FOR SEATTLE AND 

00:01:22.949 --> 00:01:24.651 align:center line:74% position:50% size:80%
I THINK IT IS A RECORD FOR MOST 

00:01:24.651 --> 00:01:29.355 align:center line:74% position:33% size:70%
AMOUNT OF SNOW IN 40 YEARS. 

00:01:29.355 --> 00:01:30.523 align:center line:74% position:36% size:73%
I WANT TO THANK EVERYONE FOR 

00:01:30.523 --> 00:01:31.324 align:center line:74% position:36% size:73%
DOING EVERYTHING THEY COULD. 

00:01:31.324 --> 00:01:33.960 align:center line:74% position:36% size:73%
WE KNOW WE HAVE SEEN IMPACTS 

00:01:33.960 --> 00:01:35.929 align:center line:74% position:40% size:75%
FOR EXAMPLE LAST NIGHT AS THE 

00:01:35.929 --> 00:01:38.264 align:center line:74% position:36% size:73%
SNOW BECAME HEAVIER WE SAW A 

00:01:38.264 --> 00:01:39.766 align:center line:74% position:31% size:68%
NUMBER OF POWER OUTAGES AS 

00:01:39.766 --> 00:01:44.938 align:center line:74% position:31% size:68%
TREES FELL OUR SPRING BACK 

00:01:44.938 --> 00:01:45.572 align:center line:74% position:21% size:53%
AGAINST POWER LINES. 

00:01:45.572 --> 00:01:46.372 align:center line:74% position:44% size:78%
SOMETIMES THEY WERE WIDESPREAD 

00:01:46.372 --> 00:01:47.774 align:center line:74% position:50% size:80%
AND SOMETIMES IT WAS ONE OR TWO 

00:01:47.774 --> 00:01:48.675 align:center line:74% position:14% size:30%
HOUSEHOLDS. 

00:01:48.675 --> 00:01:53.646 align:center line:74% position:44% size:78%
THE LARGEST HOUSE POWER OUTAGE 

00:01:53.646 --> 00:01:55.081 align:center line:74% position:44% size:78%
WAS ALMOST 40,000 AND YOU WILL 

00:01:55.081 --> 00:01:56.182 align:center line:74% position:50% size:80%
HEAR FROM DEBORAH WHO WILL TALK 

00:01:56.182 --> 00:01:57.083 align:center line:74% position:25% size:60%
TO ABOUT THE PATTERN OF 

00:01:57.083 --> 00:01:57.450 align:center line:74% position:15% size:33%
RESTORATION. 

00:01:57.450 --> 00:02:01.554 align:center line:74% position:31% size:68%
NOT EVERYBODY WILL GET THE 

00:02:01.554 --> 00:02:02.188 align:center line:74% position:33% size:70%
POWER BACK BEFORE TOMORROW. 

00:02:02.188 --> 00:02:03.256 align:center line:74% position:36% size:73%
WE ARE PREDICTING THAT THERE 

00:02:03.256 --> 00:02:04.090 align:center line:74% position:40% size:75%
WILL BE FREEZING TEMPERATURES 

00:02:04.090 --> 00:02:08.561 align:center line:74% position:22% size:55%
PROBABLY EVERY NIGHT. 

00:02:08.561 --> 00:02:09.696 align:center line:74% position:27% size:63%
WITH THAT THE ROADS WILL 

00:02:09.696 --> 00:02:10.797 align:center line:74% position:24% size:58%
CONTINUE TO ICE UP AND 

00:02:10.797 --> 00:02:11.898 align:center line:74% position:24% size:58%
SIDEWALKS WILL ICE UP. 

00:02:11.898 --> 00:02:13.766 align:center line:74% position:50% size:80%
WE WANT TO EXPRESS TO PEOPLE TO 

00:02:13.766 --> 00:02:17.003 align:center line:74% position:15% size:33%
BE CAUTIOUS. 

00:02:17.003 --> 00:02:23.510 align:center line:74% position:50% size:80%
METRO HAS INFORMED US THEY WILL 

00:02:23.510 --> 00:02:24.711 align:center line:74% position:50% size:80%
STAY ON WINTER EMERGENCY ROUTES 

00:02:24.711 --> 00:02:25.812 align:center line:74% position:33% size:70%
TOMORROW SO IF YOU COUNT ON 

00:02:25.812 --> 00:02:27.013 align:center line:74% position:44% size:78%
TRANSIT PLEASE CHECK TO SEE IF 

00:02:27.013 --> 00:02:28.281 align:center line:74% position:33% size:70%
YOUR BUS IS COMING AND WHAT 

00:02:28.281 --> 00:02:28.481 align:center line:74% position:12% size:15%
TIME. 

00:02:28.481 --> 00:02:29.616 align:center line:74% position:33% size:70%
WE KNOW THAT WITH THIS SNOW 

00:02:29.616 --> 00:02:31.017 align:center line:74% position:29% size:65%
EVENT LAST NIGHT RIGHT AT 

00:02:31.017 --> 00:02:32.318 align:center line:74% position:50% size:80%
COMMUTING TIME THAT HUNDREDS OF 

00:02:32.318 --> 00:02:32.719 align:center line:74% position:17% size:43%
BUSES GOT STUCK. 

00:02:32.719 --> 00:02:34.821 align:center line:74% position:36% size:73%
WE HAVE BEEN WORKING CLOSELY 

00:02:34.821 --> 00:02:37.690 align:center line:74% position:44% size:78%
WITH THEM TO MAKE SURE THAT WE 

00:02:37.690 --> 00:02:42.829 align:center line:74% position:40% size:75%
KEEP THOSE MAIN ARTERIALS THE 

00:02:42.829 --> 00:02:44.430 align:center line:74% position:44% size:78%
GREEN AND GOLD ROUTES OPEN BUT 

00:02:44.430 --> 00:02:49.035 align:center line:74% position:36% size:73%
WE ARE MONITORING THAT AS WE 

00:02:49.035 --> 00:02:49.302 align:center line:74% position:11% size:10%
GO. 

00:02:49.302 --> 00:02:50.136 align:center line:74% position:33% size:70%
WE ARE WORKING WITH SEATTLE 

00:02:50.136 --> 00:02:51.204 align:center line:74% position:36% size:73%
PUBLIC SCHOOLS AND WE HELPED 

00:02:51.204 --> 00:02:56.910 align:center line:74% position:50% size:80%
THEM CLEAR THE BUS LOT SO THERE 

00:02:56.910 --> 00:02:58.044 align:center line:74% position:40% size:75%
BUSES COULD GET OUT SO WE CAN 

00:02:58.044 --> 00:02:58.912 align:center line:74% position:15% size:35%
PICK KIDS UP. 

00:02:58.912 --> 00:02:59.712 align:center line:74% position:50% size:80%
WE ARE EMPHASIZING CLEARING THE 

00:02:59.712 --> 00:03:01.014 align:center line:74% position:36% size:73%
AREAS ON THE ARTERIALS WHERE 

00:03:01.014 --> 00:03:03.349 align:center line:74% position:44% size:78%
THE BUSES GO AS WELL AS PICKUP 

00:03:03.349 --> 00:03:04.517 align:center line:74% position:44% size:78%
AND DROP-OFF PLACES IN AND OUT 

00:03:04.517 --> 00:03:04.951 align:center line:74% position:17% size:40%
OF THE SCHOOLS. 

00:03:04.951 --> 00:03:06.352 align:center line:74% position:33% size:70%
THAT IS STILL A LOT OF WORK 

00:03:06.352 --> 00:03:07.053 align:center line:74% position:15% size:33%
AHEAD OF US. 

00:03:07.053 --> 00:03:08.454 align:center line:74% position:40% size:75%
I ALSO WANT TO THINK BOTH THE 

00:03:08.454 --> 00:03:09.889 align:center line:74% position:36% size:73%
PEOPLE AND THE BUSINESSES OF 

00:03:09.889 --> 00:03:10.423 align:center line:74% position:13% size:23%
SEATTLE. 

00:03:10.423 --> 00:03:11.658 align:center line:74% position:24% size:58%
LIKE I SAID I WAS ABLE 

00:03:11.658 --> 00:03:16.763 align:center line:74% position:50% size:80%
YESTERDAY TO GO TO THE GARFIELD 

00:03:16.763 --> 00:03:17.363 align:center line:74% position:29% size:65%
COMMUNITY CENTER SHELTER. 

00:03:17.363 --> 00:03:18.932 align:center line:74% position:31% size:68%
AS I WAS THERE A NUMBER OF 

00:03:18.932 --> 00:03:19.666 align:center line:74% position:36% size:73%
PEOPLE FROM THE NEIGHBORHOOD 

00:03:19.666 --> 00:03:20.867 align:center line:74% position:40% size:75%
WALKING IN SAYING WHAT CAN WE 

00:03:20.867 --> 00:03:21.467 align:center line:74% position:14% size:30%
DO TO HELP. 

00:03:21.467 --> 00:03:25.738 align:center line:74% position:44% size:78%
WE ARE HERE. SOME OF THEM CAME 

00:03:25.738 --> 00:03:26.940 align:center line:74% position:40% size:75%
WITH THEIR KIDS AND SOME CAME 

00:03:26.940 --> 00:03:27.740 align:center line:74% position:33% size:70%
BY THEMSELVES WONDERING HOW 

00:03:27.740 --> 00:03:28.541 align:center line:74% position:18% size:45%
THEY COULD DO IT. 

00:03:28.541 --> 00:03:29.776 align:center line:74% position:25% size:60%
WE ALSO HAD A NUMBER OF 

00:03:29.776 --> 00:03:31.177 align:center line:74% position:44% size:78%
BUSINESSES STAND UP TO HELP US 

00:03:31.177 --> 00:03:32.045 align:center line:74% position:44% size:78%
WITH THE NAVIGATION TEAM WHICH 

00:03:32.045 --> 00:03:33.413 align:center line:74% position:33% size:70%
HAS BEEN WORKING AROUND THE 

00:03:33.413 --> 00:03:35.982 align:center line:74% position:31% size:68%
CLOCK TO GET PEOPLE OUT OF 

00:03:35.982 --> 00:03:38.251 align:center line:74% position:36% size:73%
THEIR TENTS AND VEHICLES AND 

00:03:38.251 --> 00:03:39.852 align:center line:74% position:44% size:78%
DOORWAYS WHERE WAS UNSAFE INTO 

00:03:39.852 --> 00:03:40.119 align:center line:74% position:13% size:25%
SHELTERS. 

00:03:40.119 --> 00:03:42.288 align:center line:74% position:36% size:73%
AMAZON DELIVERED HUNDREDS OF 

00:03:42.288 --> 00:03:46.359 align:center line:74% position:44% size:78%
PIECES OF CLOTHING AND FOOD SO 

00:03:46.359 --> 00:03:47.994 align:center line:74% position:44% size:78%
THE NAVIGATION TEAM WOULD HAVE 

00:03:47.994 --> 00:03:48.361 align:center line:74% position:17% size:40%
THOSE SUPPLIES. 

00:03:48.361 --> 00:03:51.698 align:center line:74% position:25% size:60%
COSTCO ALSO STEPPED UP. 

00:03:51.698 --> 00:03:52.899 align:center line:74% position:40% size:75%
THEY GAVE US GLOVES AND SOCKS 

00:03:52.899 --> 00:03:54.300 align:center line:74% position:20% size:50%
AND COATS AND FOOD. 

00:03:54.300 --> 00:03:55.501 align:center line:74% position:27% size:63%
NORDSTROM'S ALSO GAVE US 

00:03:55.501 --> 00:03:57.170 align:center line:74% position:24% size:58%
ESSENTIAL SUPPLIES AND 

00:03:57.170 --> 00:03:57.804 align:center line:74% position:22% size:55%
STARBUCKS HAS STARTED 

00:03:57.804 --> 00:04:00.773 align:center line:74% position:50% size:80%
DELIVERING HOT COFFEES AND TEAS 

00:04:00.773 --> 00:04:04.310 align:center line:74% position:40% size:75%
AND ONE BRINKS TO THE SHELTER 

00:04:04.310 --> 00:04:05.712 align:center line:74% position:40% size:75%
SOME PEOPLE COMING OUT OF THE 

00:04:05.712 --> 00:04:07.313 align:center line:74% position:40% size:75%
COLD WILL BE ABLE TO HAVE HOT 

00:04:07.313 --> 00:04:07.780 align:center line:74% position:14% size:28%
BEVERAGES. 

00:04:07.780 --> 00:04:08.915 align:center line:74% position:33% size:70%
BOTH OUR BUSINESSES AND THE 

00:04:08.915 --> 00:04:10.316 align:center line:74% position:40% size:75%
PEOPLE OF SEATTLE HAVE REALLY 

00:04:10.316 --> 00:04:15.622 align:center line:74% position:14% size:30%
STEPPED UP. 

00:04:15.622 --> 00:04:16.889 align:center line:74% position:33% size:70%
WE SENT TO PEOPLE MAKE IT A 

00:04:16.889 --> 00:04:17.323 align:center line:74% position:15% size:33%
BLOCK PARTY. 

00:04:17.323 --> 00:04:18.324 align:center line:74% position:27% size:63%
WE GOT REPORTS BACK BOTH 

00:04:18.324 --> 00:04:19.325 align:center line:74% position:44% size:78%
ANECDOTALLY AND ON TWITTER AND 

00:04:19.325 --> 00:04:20.693 align:center line:74% position:50% size:80%
THINGS LIKE THAT OF PEOPLE THAT 

00:04:20.693 --> 00:04:21.794 align:center line:74% position:36% size:73%
ACTUALLY DID GO OUT AND THEY 

00:04:21.794 --> 00:04:22.729 align:center line:74% position:44% size:78%
SHARE THEIR SHOVELS AND WORKED 

00:04:22.729 --> 00:04:23.129 align:center line:74% position:13% size:25%
TOGETHER. 

00:04:23.129 --> 00:04:24.030 align:center line:74% position:33% size:70%
IF ANYBODY IS WONDERING HOW 

00:04:24.030 --> 00:04:26.833 align:center line:74% position:36% size:73%
THEY CAN CONTINUE WE WILL BE 

00:04:26.833 --> 00:04:28.034 align:center line:74% position:36% size:73%
SETTING UP A VOLUNTEER PLACE 

00:04:28.034 --> 00:04:30.136 align:center line:74% position:44% size:78%
WHERE PEOPLE CAN GO BECAUSE WE 

00:04:30.136 --> 00:04:31.604 align:center line:74% position:29% size:65%
HAVE MADE THE DECISION TO 

00:04:31.604 --> 00:04:34.540 align:center line:74% position:44% size:78%
CONTINUE BOTH THE GARFIELD AND 

00:04:34.540 --> 00:04:36.309 align:center line:74% position:50% size:80%
BITTER LAKE SHELTERS THROUGH AT 

00:04:36.309 --> 00:04:39.245 align:center line:74% position:36% size:73%
LEAST NEXT MONDAY BECAUSE WE 

00:04:39.245 --> 00:04:40.246 align:center line:74% position:19% size:48%
WANT TO MAKE SURE. 

00:04:40.246 --> 00:04:41.648 align:center line:74% position:36% size:73%
WE HAVE HAD THIS OPPORTUNITY 

00:04:41.648 --> 00:04:45.118 align:center line:74% position:33% size:70%
WHERE PEOPLE WHO HAVE NEVER 

00:04:45.118 --> 00:04:46.152 align:center line:74% position:36% size:73%
COME INSIDE BEFORE HAVE COME 

00:04:46.152 --> 00:04:47.620 align:center line:74% position:40% size:75%
INSIDE AND WE WANT TO BE SURE 

00:04:47.620 --> 00:04:48.755 align:center line:74% position:29% size:65%
WE GET THEM EVALUATED AND 

00:04:48.755 --> 00:04:49.656 align:center line:74% position:50% size:80%
CONNECT THEM WITH SERVICES THAT 

00:04:49.656 --> 00:04:51.157 align:center line:74% position:50% size:80%
ARE AVAILABLE FOR THEM AND KEEP 

00:04:51.157 --> 00:04:51.424 align:center line:74% position:12% size:15%
THEM. 

00:04:51.424 --> 00:04:52.258 align:center line:74% position:22% size:55%
WE PROBABLY WILL NEED 

00:04:52.258 --> 00:04:53.726 align:center line:74% position:33% size:70%
VOLUNTEERS IN EACH OF THOSE 

00:04:53.726 --> 00:04:55.461 align:center line:74% position:13% size:20%
PLACES. 

00:04:55.461 --> 00:04:56.729 align:center line:74% position:36% size:73%
WE DO NOT HAVE THE PLACE YOU 

00:04:56.729 --> 00:04:58.131 align:center line:74% position:33% size:70%
CAN GO YET BUT WE WILL HAVE 

00:04:58.131 --> 00:04:58.598 align:center line:74% position:15% size:35%
THAT SHORTLY. 

00:04:58.598 --> 00:05:02.135 align:center line:74% position:50% size:80%
ANYONE WHO HAS A QUESTION FOR ME

00:05:02.135 --> 00:05:03.636 align:center line:74% position:40% size:75%
YOU CAN ALWAYS REACH ME AT MY 

00:05:03.636 --> 00:05:04.570 align:center line:74% position:16% size:38%
EMAIL ADDRESS. 

00:05:04.570 --> 00:05:06.639 align:center line:74% position:33% size:70%
OUR GOALS REALLY REMAIN THE 

00:05:06.639 --> 00:05:06.839 align:center line:74% position:12% size:15%
SAME. 

00:05:06.839 --> 00:05:09.676 align:center line:74% position:36% size:73%
WE HAVE TO KEEP PEOPLE SAFE. 

00:05:09.676 --> 00:05:11.477 align:center line:74% position:50% size:80%
WE ARE THROUGH THE WORST OF THE 

00:05:11.477 --> 00:05:13.980 align:center line:74% position:50% size:80%
WEATHER BUT IT WILL CONTINUE TO 

00:05:13.980 --> 00:05:15.648 align:center line:74% position:50% size:80%
BE ASSOCIATED EVENTS RELATED TO 

00:05:15.648 --> 00:05:17.083 align:center line:74% position:16% size:38%
POWER OUTAGES. 

00:05:17.083 --> 00:05:17.483 align:center line:74% position:18% size:45%
PERHAPS FLOODING. 

00:05:17.483 --> 00:05:18.785 align:center line:74% position:36% size:73%
WE ARE CHECKING CAREFULLY TO 

00:05:18.785 --> 00:05:20.253 align:center line:74% position:27% size:63%
MAKE SURE WE DO NOT HAVE 

00:05:20.253 --> 00:05:21.954 align:center line:74% position:50% size:80%
LANDSLIDES. WE ARE WORKING WITH 

00:05:21.954 --> 00:05:25.792 align:center line:74% position:44% size:78%
METRO TO MAKE SURE WE CAN KEEP 

00:05:25.792 --> 00:05:27.160 align:center line:74% position:40% size:75%
THE BUSES RUNNING AS CLEAR AS 

00:05:27.160 --> 00:05:27.427 align:center line:74% position:13% size:25%
POSSIBLE. 

00:05:27.427 --> 00:05:31.597 align:center line:74% position:50% size:80%
WE HAVE HAD 36 SDOT TRUCKS THAT 

00:05:31.597 --> 00:05:35.301 align:center line:74% position:29% size:65%
ARE OUT  ROVING AND DOING 

00:05:35.301 --> 00:05:36.369 align:center line:74% position:50% size:80%
ARTERIALS AND A NUMBER OF CREWS 

00:05:36.369 --> 00:05:39.405 align:center line:74% position:40% size:75%
FROM THE PARKS DEPARTMENT AND 

00:05:39.405 --> 00:05:40.707 align:center line:74% position:50% size:80%
SDOT DOING HAND SHOVELS AND THE 

00:05:40.707 --> 00:05:40.940 align:center line:74% position:12% size:15%
LIKE. 

00:05:40.940 --> 00:05:41.974 align:center line:74% position:29% size:65%
WE WILL MAKE SURE THAT WE 

00:05:41.974 --> 00:05:47.413 align:center line:74% position:50% size:80%
CONTINUE TO DO  WHAT WE NEED TO 

00:05:47.413 --> 00:05:48.681 align:center line:74% position:31% size:68%
DO TO GET THE ROADS CLEAN. 

00:05:48.681 --> 00:05:50.316 align:center line:74% position:50% size:80%
I WILL TELL YOU IF YOU ARE IN A 

00:05:50.316 --> 00:05:51.184 align:center line:74% position:50% size:80%
RESIDENTIAL AREA HAVE PATIENCE. 

00:05:51.184 --> 00:05:53.519 align:center line:74% position:44% size:78%
YOU WILL NOT SEE SNOW PLOWS IN 

00:05:53.519 --> 00:05:54.120 align:center line:74% position:25% size:60%
EVERY RESIDENTIAL AREA. 

00:05:54.120 --> 00:05:54.987 align:center line:74% position:29% size:65%
WE WILL BE EVALUATING THE 

00:05:54.987 --> 00:05:55.722 align:center line:74% position:24% size:58%
HIGHEST PRIORITY ONCE. 

00:05:55.722 --> 00:06:00.493 align:center line:74% position:33% size:70%
AS THE SNOW MELTS AND THAWS 

00:06:00.493 --> 00:06:01.327 align:center line:74% position:36% size:73%
ANOTHER DANGER IS BECAUSE OF 

00:06:01.327 --> 00:06:02.729 align:center line:74% position:33% size:70%
THE LIMITED VISIBILITY THAT 

00:06:02.729 --> 00:06:08.234 align:center line:74% position:50% size:80%
SNOWPLOWS HAVE AND KIDS ARE OUT 

00:06:08.234 --> 00:06:09.635 align:center line:74% position:50% size:80%
OF SCHOOL WE DO NOT NECESSARILY 

00:06:09.635 --> 00:06:10.436 align:center line:74% position:50% size:80%
WANT THOSE PLOWS IN RESIDENTIAL 

00:06:10.436 --> 00:06:11.104 align:center line:74% position:27% size:63%
NEIGHBORHOODS FOR SAFETY 

00:06:11.104 --> 00:06:11.838 align:center line:74% position:13% size:23%
REASONS. 

00:06:11.838 --> 00:06:16.743 align:center line:74% position:44% size:78%
SO AGAIN THE EMERGENCY SHELTER 

00:06:16.743 --> 00:06:17.744 align:center line:74% position:27% size:63%
WILL REMAIN OPEN THROUGH 

00:06:17.744 --> 00:06:18.010 align:center line:74% position:13% size:20%
MONDAY. 

00:06:18.010 --> 00:06:19.379 align:center line:74% position:40% size:75%
WILL GIVE YOU MORE NUMBERS ON 

00:06:19.379 --> 00:06:20.213 align:center line:74% position:12% size:15%
THAT. 

00:06:20.213 --> 00:06:21.848 align:center line:74% position:50% size:80%
I WANT TO THANK EVERYONE OF OUR 

00:06:21.848 --> 00:06:22.815 align:center line:74% position:13% size:25%
PARTNERS. 

00:06:22.815 --> 00:06:25.718 align:center line:74% position:29% size:65%
FIRE AND POLICE AND SDOT  

00:06:25.718 --> 00:06:29.122 align:center line:74% position:50% size:80%
EVERYBODY HAS COME TOGETHER AND 

00:06:29.122 --> 00:06:30.323 align:center line:74% position:44% size:78%
HAS BEEN SHARING RESOURCES AND 

00:06:30.323 --> 00:06:35.862 align:center line:74% position:50% size:80%
EMPLOYEES IN A WAY THAT I THINK 

00:06:35.862 --> 00:06:37.063 align:center line:74% position:44% size:78%
EVERYONE IN THE CITY SHOULD BE 

00:06:37.063 --> 00:06:37.630 align:center line:74% position:16% size:38%
VERY PROUD OF. 

00:06:37.630 --> 00:06:40.266 align:center line:74% position:40% size:75%
WE HAVE HAD PEOPLE WORKING 12 

00:06:40.266 --> 00:06:41.768 align:center line:74% position:44% size:78%
HOUR SHIFTS BACK TO BACK FOR A 

00:06:41.768 --> 00:06:43.069 align:center line:74% position:20% size:50%
PERIOD OF TIME NOW. 

00:06:43.069 --> 00:06:46.472 align:center line:74% position:50% size:80%
THEY ARE GETTING TIRED BUT THEY 

00:06:46.472 --> 00:06:47.840 align:center line:74% position:50% size:80%
ARE PROUD OF THE WORK THEY HAVE 

00:06:47.840 --> 00:06:48.074 align:center line:74% position:12% size:15%
DONE. 

00:06:48.074 --> 00:06:49.275 align:center line:74% position:36% size:73%
IF THERE IS ANYBODY THAT YOU 

00:06:49.275 --> 00:06:50.343 align:center line:74% position:33% size:70%
ARE CONCERNED ABOUT AS THIS 

00:06:50.343 --> 00:06:54.947 align:center line:74% position:33% size:70%
WEATHER EVENT CONTINUES THE 

00:06:54.947 --> 00:06:56.015 align:center line:74% position:44% size:78%
CRISIS LINE IS TOO ONE-ON-ONE. 

00:06:56.015 --> 00:06:56.783 align:center line:74% position:18% size:45%
PLEASE CALL THAT. 

00:06:56.783 --> 00:07:00.553 align:center line:74% position:40% size:75%
IF YOU SEE SOMEONE THAT IS IN 

00:07:00.553 --> 00:07:01.187 align:center line:74% position:33% size:70%
NEED OF SOMETHING IMMEDIATE 

00:07:01.187 --> 00:07:02.655 align:center line:74% position:50% size:80%
THAT IS A REAL EMERGENCY PLEASE 

00:07:02.655 --> 00:07:03.022 align:center line:74% position:13% size:25%
CALL 911. 

00:07:03.022 --> 00:07:05.091 align:center line:74% position:50% size:80%
IT IS GOING TO BE ANOTHER TOUGH 

00:07:05.091 --> 00:07:10.696 align:center line:74% position:33% size:70%
FEW DAYS YESTERDAY AND LAST 

00:07:10.696 --> 00:07:11.798 align:center line:74% position:50% size:80%
NIGHT WAS PROBABLY THE ROUGHEST 

00:07:11.798 --> 00:07:12.999 align:center line:74% position:44% size:78%
SPELL WE HAVE HAD ON THE ROADS 

00:07:12.999 --> 00:07:16.202 align:center line:74% position:16% size:38%
AND FOR POWER. 

00:07:16.202 --> 00:07:17.470 align:center line:74% position:50% size:80%
I WANT TO REALLY THANK EVERYONE 

00:07:17.470 --> 00:07:18.104 align:center line:74% position:20% size:50%
FOR THEIR PATIENCE. 

00:07:18.104 --> 00:07:19.505 align:center line:74% position:50% size:80%
YOU WILL HEAR NOW FROM A NUMBER 

00:07:19.505 --> 00:07:20.573 align:center line:74% position:40% size:75%
OF PEOPLE FROM THE DEPARTMENT 

00:07:20.573 --> 00:07:21.808 align:center line:74% position:27% size:63%
SO WE WILL LET YOU KNOW. 

00:07:21.808 --> 00:07:22.775 align:center line:74% position:33% size:70%
ONE THING THAT EVERYBODY IS 

00:07:22.775 --> 00:07:23.810 align:center line:74% position:27% size:63%
LOOKING NOW AS THEY TAKE 

00:07:23.810 --> 00:07:24.977 align:center line:74% position:36% size:73%
THEMSELVES OUT WHAT ABOUT MY 

00:07:24.977 --> 00:07:26.212 align:center line:74% position:50% size:80%
BUS METRO IS NOT HERE TODAY BUT 

00:07:26.212 --> 00:07:27.613 align:center line:74% position:50% size:80%
WE WILL REFER YOU TO THEIR LINE 

00:07:27.613 --> 00:07:30.483 align:center line:74% position:22% size:55%
FOR THEIR SNOW ROUTE. 

00:07:30.483 --> 00:07:31.884 align:center line:74% position:40% size:75%
WE HAVE SAM TO TALK ABOUT THE 

00:07:31.884 --> 00:07:33.319 align:center line:74% position:36% size:73%
STREETS AND WE WILL TELL YOU 

00:07:33.319 --> 00:07:34.487 align:center line:74% position:36% size:73%
ABOUT TRASH PICKUP AND LIGHT 

00:07:34.487 --> 00:07:39.525 align:center line:74% position:22% size:55%
SERVICE AND THE LIKE. 

00:07:39.525 --> 00:07:40.793 align:center line:74% position:31% size:68%
THANK YOU VERY MUCH TO THE 

00:07:40.793 --> 00:07:41.794 align:center line:74% position:33% size:70%
PEOPLE OF SEATTLE FOR THEIR 

00:07:41.794 --> 00:07:42.829 align:center line:74% position:50% size:80%
EXTENDED PATIENCE AND THANK YOU 

00:07:42.829 --> 00:07:44.297 align:center line:74% position:50% size:80%
FOR STEPPING UP AND HELPING HER 

00:07:44.297 --> 00:07:49.001 align:center line:74% position:14% size:28%
NEIGHBORS. 

00:07:49.001 --> 00:07:51.537 align:center line:74% position:27% size:63%
&gt;&gt; SAM ZIMBABWE FROM THE 

00:07:51.537 --> 00:07:52.405 align:center line:74% position:40% size:75%
DEPARTMENT OF TRANSPORTATION. 

00:07:52.405 --> 00:07:53.206 align:center line:74% position:44% size:78%
TO REEMPHASIZE A COUPLE THINGS 

00:07:53.206 --> 00:07:55.608 align:center line:74% position:50% size:80%
THE MAYOR ALREADY TOUCHED ON WE 

00:07:55.608 --> 00:07:56.509 align:center line:74% position:40% size:75%
ARE RECOVERING FROM THE HEAVY 

00:07:56.509 --> 00:07:58.644 align:center line:74% position:44% size:78%
SNOW LAST NIGHT BOTH HEAVY AND 

00:07:58.644 --> 00:08:01.347 align:center line:74% position:33% size:70%
VOLUME AND HEAVY IN WEIGHT. 

00:08:01.347 --> 00:08:06.118 align:center line:74% position:50% size:80%
THE GREEN AND GOLD ARTERIALS ARE

00:08:06.118 --> 00:08:07.320 align:center line:74% position:50% size:80%
INVARIABLE CONDITION RIGHT NOW. 

00:08:07.320 --> 00:08:08.621 align:center line:74% position:44% size:78%
WE STILL HAVE SLUSH ON SOME OF 

00:08:08.621 --> 00:08:10.056 align:center line:74% position:44% size:78%
THEM AND WE ARE WORKING TO GET 

00:08:10.056 --> 00:08:10.490 align:center line:74% position:14% size:30%
THEM CLEAR. 

00:08:10.490 --> 00:08:11.858 align:center line:74% position:31% size:68%
AS SOON AS WE CAN GET THEM 

00:08:11.858 --> 00:08:13.759 align:center line:74% position:40% size:75%
CLEAR THE NEXT PRIORITY TODAY 

00:08:13.759 --> 00:08:14.961 align:center line:74% position:29% size:65%
IS TO TRY TO HELP SCHOOLS 

00:08:14.961 --> 00:08:17.263 align:center line:74% position:33% size:70%
GETTING PLOWS TO SCHOOL BUS 

00:08:17.263 --> 00:08:21.868 align:center line:74% position:36% size:73%
DROVE UP AND PARENT DROP-OFF 

00:08:21.868 --> 00:08:23.369 align:center line:74% position:36% size:73%
AREAS AND HELPING METRO WITH 

00:08:23.369 --> 00:08:25.938 align:center line:74% position:17% size:43%
THEIR OPERATION. 

00:08:25.938 --> 00:08:26.939 align:center line:74% position:21% size:53%
WE ARE IN VERY CLOSE 

00:08:26.939 --> 00:08:27.773 align:center line:74% position:40% size:75%
COMMUNICATION WITH THEM ABOUT 

00:08:27.773 --> 00:08:29.375 align:center line:74% position:50% size:80%
WHAT THEIR NEEDS ARE WITHIN THE 

00:08:29.375 --> 00:08:33.880 align:center line:74% position:40% size:75%
CITY AND HOW THEIR TURN BACKS 

00:08:33.880 --> 00:08:34.847 align:center line:74% position:40% size:75%
ON SMALLER STREETS AND THINGS 

00:08:34.847 --> 00:08:36.082 align:center line:74% position:36% size:73%
LIKE THAT TO KEEP THEM OPEN. 

00:08:36.082 --> 00:08:37.750 align:center line:74% position:36% size:73%
WE ARE ALSO HELPING WITH ANY 

00:08:37.750 --> 00:08:39.886 align:center line:74% position:40% size:75%
AREAS OF PLUGGED STORM DRAINS 

00:08:39.886 --> 00:08:44.056 align:center line:74% position:29% size:65%
TO HELP WITH ANY FLOODING 

00:08:44.056 --> 00:08:44.290 align:center line:74% position:13% size:20%
ISSUES. 

00:08:44.290 --> 00:08:46.058 align:center line:74% position:36% size:73%
THAT'S WHAT WE FIRST SEE FOR 

00:08:46.058 --> 00:08:53.099 align:center line:74% position:44% size:78%
THE NEXT 24 HOURS OF OUR WORK. 

00:08:53.099 --> 00:08:54.200 align:center line:74% position:22% size:55%
AS THE MAYOR SAID THE 

00:08:54.200 --> 00:08:55.968 align:center line:74% position:31% size:68%
PREDICTION IS FOR FREEZING 

00:08:55.968 --> 00:08:56.802 align:center line:74% position:33% size:70%
TEMPERATURES AGAIN OVER THE 

00:08:56.802 --> 00:08:58.371 align:center line:74% position:40% size:75%
NEXT COUPLE OF DAYS OVERNIGHT 

00:08:58.371 --> 00:09:06.712 align:center line:74% position:44% size:78%
SO PLEASE IF YOU NEED TO DRIVE 

00:09:06.712 --> 00:09:07.713 align:center line:74% position:22% size:55%
BE VERY CAREFUL ABOUT 

00:09:07.713 --> 00:09:08.014 align:center line:74% position:14% size:30%
CONDITIONS. 

00:09:08.014 --> 00:09:08.981 align:center line:74% position:29% size:65%
WE STILL HAVE A NUMBER OF 

00:09:08.981 --> 00:09:09.782 align:center line:74% position:27% size:63%
STREET CLOSED SIGNS OUT. 

00:09:09.782 --> 00:09:11.017 align:center line:74% position:36% size:73%
THOSE ARE STILL IN PLACE FOR 

00:09:11.017 --> 00:09:11.417 align:center line:74% position:16% size:38%
PEOPLE SAFETY. 

00:09:11.417 --> 00:09:12.618 align:center line:74% position:33% size:70%
PLEASE DO NOT GO AROUND THE 

00:09:12.618 --> 00:09:14.020 align:center line:74% position:29% size:65%
HOUSE AND WE HAVE SEEN AN 

00:09:14.020 --> 00:09:19.325 align:center line:74% position:50% size:80%
UPTICK IN THE NUMBER OF CRASHES 

00:09:19.325 --> 00:09:20.793 align:center line:74% position:50% size:80%
AS PEOPLE ARE EAGER TO GET BACK 

00:09:20.793 --> 00:09:21.527 align:center line:74% position:22% size:55%
TO THEIR DAILY LIVES. 

00:09:21.527 --> 00:09:22.929 align:center line:74% position:40% size:75%
PLEASE BE AWARE AND MAKE SURE 

00:09:22.929 --> 00:09:24.030 align:center line:74% position:44% size:78%
IF YOU ARE WALKING GIVE PEOPLE 

00:09:24.030 --> 00:09:29.035 align:center line:74% position:33% size:70%
TIME TO STOP AND IF YOU ARE 

00:09:29.035 --> 00:09:30.236 align:center line:74% position:27% size:63%
DRIVING BE SURE YOU GIVE 

00:09:30.236 --> 00:09:31.137 align:center line:74% position:29% size:65%
YOURSELF TIME TO STOP FOR 

00:09:31.137 --> 00:09:32.405 align:center line:74% position:50% size:80%
PEDESTRIANS THAT ARE OUT THERE. 

00:09:32.405 --> 00:09:33.606 align:center line:74% position:25% size:60%
AGAIN PLEASE CLEAR YOUR 

00:09:33.606 --> 00:09:37.643 align:center line:74% position:36% size:73%
SIDEWALKS AS SOON AS HE CAN. 

00:09:37.643 --> 00:09:41.314 align:center line:74% position:40% size:75%
TAKE ANY BREAK IN THE WEATHER 

00:09:41.314 --> 00:09:42.648 align:center line:74% position:50% size:80%
THAT YOU CAN'T TO GET OUT THERE 

00:09:42.648 --> 00:09:43.649 align:center line:74% position:20% size:50%
AND CLEAR THEM OFF. 

00:09:43.649 --> 00:09:45.518 align:center line:74% position:40% size:75%
IT'S MUCH EASIER THAN ONCE IT 

00:09:45.518 --> 00:09:48.621 align:center line:74% position:13% size:23%
FREEZES. 

00:09:48.621 --> 00:09:50.056 align:center line:74% position:31% size:68%
&gt;&gt; I AM DEBORAH SMITH WITH 

00:09:50.056 --> 00:09:50.656 align:center line:74% position:20% size:50%
SEATTLE CITY LIGHT. 

00:09:50.656 --> 00:09:53.059 align:center line:74% position:24% size:58%
CLEARLY I USE THE WORD 

00:09:53.059 --> 00:09:54.126 align:center line:74% position:36% size:73%
FORTUNATE ONE TOO MANY TIMES 

00:09:54.126 --> 00:09:55.661 align:center line:74% position:44% size:78%
THE LAST FEW DAYS BECAUSE THAT 

00:09:55.661 --> 00:09:56.128 align:center line:74% position:18% size:45%
ENDED LAST NIGHT. 

00:09:56.128 --> 00:10:00.967 align:center line:74% position:50% size:80%
WHAT WE HAD WAS A LOT OF SPRING 

00:10:00.967 --> 00:10:01.200 align:center line:74% position:12% size:18%
BACKS. 

00:10:01.200 --> 00:10:07.073 align:center line:74% position:40% size:75%
THERE WAS A HEAVY SNOW AND IN 

00:10:07.073 --> 00:10:07.873 align:center line:74% position:44% size:78%
PARTICULAR YESTERDAY AFTERNOON 

00:10:07.873 --> 00:10:08.975 align:center line:74% position:44% size:78%
REALLY HEAVY SNOW IN THE NORTH 

00:10:08.975 --> 00:10:09.875 align:center line:74% position:20% size:50%
PART OF THE SYSTEM. 

00:10:09.875 --> 00:10:11.377 align:center line:74% position:36% size:73%
IT PUSHED DOWN ON VEGETATION 

00:10:11.377 --> 00:10:12.845 align:center line:74% position:31% size:68%
AND AS THE SNOW MELTED AND 

00:10:12.845 --> 00:10:15.781 align:center line:74% position:50% size:80%
WARMER WEATHER CAME IN BRANCHES 

00:10:15.781 --> 00:10:16.983 align:center line:74% position:44% size:78%
AND VEGETATION SPRING BACK AND 

00:10:16.983 --> 00:10:19.585 align:center line:74% position:20% size:50%
GOT INTO THE LINES. 

00:10:19.585 --> 00:10:20.886 align:center line:74% position:27% size:63%
WE HAVE HAD ALL SORTS OF 

00:10:20.886 --> 00:10:21.153 align:center line:74% position:13% size:20%
EVENTS. 

00:10:21.153 --> 00:10:22.488 align:center line:74% position:29% size:65%
WE'VE HAD EVERYTHING FROM 

00:10:22.488 --> 00:10:24.957 align:center line:74% position:29% size:65%
SINGLE HOMES WHERE WE ARE 

00:10:24.957 --> 00:10:25.992 align:center line:74% position:22% size:55%
GETTING A DROP INTO A 

00:10:25.992 --> 00:10:26.325 align:center line:74% position:14% size:28%
RESIDENCE. 

00:10:26.325 --> 00:10:27.960 align:center line:74% position:40% size:75%
WE HAD SOME TRANSMISSION LINE 

00:10:27.960 --> 00:10:29.562 align:center line:74% position:31% size:68%
ISSUES AND WE HAVE HAD ALL 

00:10:29.562 --> 00:10:31.998 align:center line:74% position:31% size:68%
KINDS OF SERVICE LINES AND 

00:10:31.998 --> 00:10:33.666 align:center line:74% position:50% size:80%
DISTRIBUTION SYSTEMS AS WELL AS 

00:10:33.666 --> 00:10:36.302 align:center line:74% position:13% size:23%
FEEDERS. 

00:10:36.302 --> 00:10:37.770 align:center line:74% position:36% size:73%
IT HAS BEEN KIND OF ROLLING. 

00:10:37.770 --> 00:10:39.372 align:center line:74% position:29% size:65%
WE KNOW THAT THE PEAK WAS 

00:10:39.372 --> 00:10:44.477 align:center line:74% position:36% size:73%
39,000 CUSTOMERS LAST NIGHT. 

00:10:44.477 --> 00:10:45.878 align:center line:74% position:44% size:78%
AS WE WERE STANDING HERE I GOT 

00:10:45.878 --> 00:10:49.882 align:center line:74% position:44% size:78%
A NEW SERVICE MOMENT NOTICE AS 

00:10:49.882 --> 00:10:51.384 align:center line:74% position:50% size:80%
MORE FOLKS THAT ARE OUT THAT IS 

00:10:51.384 --> 00:10:52.818 align:center line:74% position:21% size:53%
PROBABLY PART OF THE 

00:10:52.818 --> 00:10:55.021 align:center line:74% position:21% size:53%
RESTORATION PROCESS. 

00:10:55.021 --> 00:10:56.288 align:center line:74% position:36% size:73%
THAT IS ONE THING THAT FOLKS 

00:10:56.288 --> 00:10:57.423 align:center line:74% position:40% size:75%
CAN NO IS OFTEN AS WE RESTORE 

00:10:57.423 --> 00:10:58.924 align:center line:74% position:36% size:73%
SERVICE IT REQUIRES AT TIMES 

00:10:58.924 --> 00:11:02.128 align:center line:74% position:50% size:80%
TAKING OTHER FOLKS OUT WHILE WE 

00:11:02.128 --> 00:11:03.195 align:center line:74% position:50% size:80%
RE-ENERGIZE PART OF THE SYSTEM. 

00:11:03.195 --> 00:11:04.730 align:center line:74% position:40% size:75%
WE GET A ROLLING IMPACT AND I 

00:11:04.730 --> 00:11:05.931 align:center line:74% position:36% size:73%
DO NOT HAVE A NUMBER YET FOR 

00:11:05.931 --> 00:11:07.633 align:center line:74% position:44% size:78%
HOW MANY FOLKS TOTAL HAVE BEEN 

00:11:07.633 --> 00:11:10.236 align:center line:74% position:36% size:73%
IMPACTED BY POWER OUTAGES IN 

00:11:10.236 --> 00:11:11.637 align:center line:74% position:40% size:75%
THE LAST 24 HOURS BUT WE WILL 

00:11:11.637 --> 00:11:13.305 align:center line:74% position:44% size:78%
GET THAT FOR YOU AS SOON AS WE 

00:11:13.305 --> 00:11:13.639 align:center line:74% position:11% size:13%
CAN. 

00:11:13.639 --> 00:11:17.410 align:center line:74% position:40% size:75%
WE'VE HAD ALL OF OUR CREWS IN 

00:11:17.410 --> 00:11:18.744 align:center line:74% position:40% size:75%
AND WE ARE WORKING WITH CREWS 

00:11:18.744 --> 00:11:19.812 align:center line:74% position:40% size:75%
FROM LAST NIGHT WHO ARE STILL 

00:11:19.812 --> 00:11:25.918 align:center line:74% position:44% size:78%
ON THE JOB AND A WHOLE SLEW OF 

00:11:25.918 --> 00:11:27.253 align:center line:74% position:44% size:78%
FRESH ONES THAT JOIN THEM THIS 

00:11:27.253 --> 00:11:27.520 align:center line:74% position:13% size:23%
MORNING. 

00:11:27.520 --> 00:11:28.254 align:center line:74% position:36% size:73%
WE ARE WATCHING CAREFULLY TO 

00:11:28.254 --> 00:11:29.522 align:center line:74% position:44% size:78%
MAKE SURE FOLKS ARE RESTED AND 

00:11:29.522 --> 00:11:30.356 align:center line:74% position:12% size:15%
SAFE. 

00:11:30.356 --> 00:11:33.759 align:center line:74% position:44% size:78%
WE EXPECT THAT RESTORATION NOW 

00:11:33.759 --> 00:11:35.428 align:center line:74% position:40% size:75%
ABOUT 4000 CUSTOMERS THAT ARE 

00:11:35.428 --> 00:11:37.263 align:center line:74% position:36% size:73%
OUT IS AT THE POINT WHERE IT 

00:11:37.263 --> 00:11:41.067 align:center line:74% position:15% size:35%
REALLY SLOWS. 

00:11:41.067 --> 00:11:42.168 align:center line:74% position:31% size:68%
OUR RESTORATION PROTOCOL I 

00:11:42.168 --> 00:11:43.369 align:center line:74% position:44% size:78%
THINK MOST OF YOU KNOW THAT IS 

00:11:43.369 --> 00:11:45.037 align:center line:74% position:44% size:78%
WE TRY TO GET AS MANY FOLKS ON 

00:11:45.037 --> 00:11:46.172 align:center line:74% position:25% size:60%
AS WE CAN AS QUICKLY AS 

00:11:46.172 --> 00:11:46.472 align:center line:74% position:13% size:25%
POSSIBLE. 

00:11:46.472 --> 00:11:47.840 align:center line:74% position:50% size:80%
THAT MEANS AS TIMELINES YOU ARE 

00:11:47.840 --> 00:11:49.442 align:center line:74% position:40% size:75%
DEALING WITH SMALL NUMBERS OF 

00:11:49.442 --> 00:11:52.945 align:center line:74% position:50% size:80%
OUTAGES THAT OFTEN REQUIRE LINE 

00:11:52.945 --> 00:11:55.414 align:center line:74% position:40% size:75%
PATROLLING AND IT IS FAR MORE 

00:11:55.414 --> 00:11:58.551 align:center line:74% position:17% size:43%
LABOR-INTENSIVE. 

00:11:58.551 --> 00:11:59.351 align:center line:74% position:33% size:70%
UNFORTUNATELY WE SUSPECT IT 

00:11:59.351 --> 00:12:00.986 align:center line:74% position:50% size:80%
WILL BE TOMORROW MORNING IF NOT 

00:12:00.986 --> 00:12:03.989 align:center line:74% position:40% size:75%
TOMORROW AFTERNOON BEFORE ALL 

00:12:03.989 --> 00:12:05.291 align:center line:74% position:36% size:73%
OF OUR CUSTOMERS ARE BACK ON 

00:12:05.291 --> 00:12:06.859 align:center line:74% position:31% size:68%
BUT WE HOPE THAT WE CAN DO 

00:12:06.859 --> 00:12:07.493 align:center line:74% position:18% size:45%
BETTER THAN THAT. 

00:12:07.493 --> 00:12:09.061 align:center line:74% position:44% size:78%
IN THE MEANTIME IT IS COLD AND 

00:12:09.061 --> 00:12:09.261 align:center line:74% position:11% size:13%
WET. 

00:12:09.261 --> 00:12:10.429 align:center line:74% position:36% size:73%
WE APPRECIATE YOUR CONTINUED 

00:12:10.429 --> 00:12:15.067 align:center line:74% position:36% size:73%
KINDNESS TO OUR CREWS IF YOU 

00:12:15.067 --> 00:12:16.602 align:center line:74% position:50% size:80%
SEE THEM AND KNOW THAT THEY ARE 

00:12:16.602 --> 00:12:23.909 align:center line:74% position:44% size:78%
DOING THEIR VERY BEST FOR YOU. 

00:12:23.909 --> 00:12:25.010 align:center line:74% position:44% size:78%
&gt;&gt; HELLO THIS IS JASON JOHNSON 

00:12:25.010 --> 00:12:27.413 align:center line:74% position:44% size:78%
WITH THE CITY OF SEATTLE HUMAN 

00:12:27.413 --> 00:12:28.280 align:center line:74% position:21% size:53%
SERVICES DEPARTMENT. 

00:12:28.280 --> 00:12:31.517 align:center line:74% position:36% size:73%
OUR PRIORITY REMAINS GETTING 

00:12:31.517 --> 00:12:32.818 align:center line:74% position:36% size:73%
PEOPLE THAT ARE EXPERIENCING 

00:12:32.818 --> 00:12:37.223 align:center line:74% position:25% size:60%
HOMELESSNESS INDOORS IN 

00:12:37.223 --> 00:12:38.324 align:center line:74% position:50% size:80%
PARTNERSHIP WITH KING COUNTY WE 

00:12:38.324 --> 00:12:39.225 align:center line:74% position:25% size:60%
HAVE OPENED SEVERAL NEW 

00:12:39.225 --> 00:12:40.392 align:center line:74% position:33% size:70%
SHELTERS WITH MORE THAN 550 

00:12:40.392 --> 00:12:43.229 align:center line:74% position:44% size:78%
EMERGENCY SHELTER BEDS CREATED 

00:12:43.229 --> 00:12:44.730 align:center line:74% position:31% size:68%
DURING THIS WEATHER EVENT. 

00:12:44.730 --> 00:12:46.332 align:center line:74% position:50% size:80%
WE HAVE CREATED SEPARATE SPACES 

00:12:46.332 --> 00:12:52.638 align:center line:74% position:33% size:70%
AND SOMETIMES EVEN SEPARATE 

00:12:52.638 --> 00:12:53.439 align:center line:74% position:27% size:63%
SHELTERS FOR MEN, YOUTH, 

00:12:53.439 --> 00:12:54.440 align:center line:74% position:44% size:78%
FAMILIES, WOMEN TO COME INSIDE 

00:12:54.440 --> 00:12:59.044 align:center line:74% position:16% size:38%
AND FEEL SAFE. 

00:12:59.044 --> 00:12:59.778 align:center line:74% position:27% size:63%
WE ARE ALSO COORDINATING 

00:12:59.778 --> 00:13:00.746 align:center line:74% position:33% size:70%
MEDICAL SERVICES AS WELL AS 

00:13:00.746 --> 00:13:01.814 align:center line:74% position:50% size:80%
OTHER SERVICES THAT PEOPLE NEED 

00:13:01.814 --> 00:13:02.548 align:center line:74% position:36% size:73%
IT THOSE SHELTER FACILITIES. 

00:13:02.548 --> 00:13:04.850 align:center line:74% position:50% size:80%
AS THE MAYOR MENTIONED GARFIELD 

00:13:04.850 --> 00:13:06.018 align:center line:74% position:29% size:65%
AND BITTER LAKE COMMUNITY 

00:13:06.018 --> 00:13:07.219 align:center line:74% position:33% size:70%
CENTER SHELTERS WILL REMAIN 

00:13:07.219 --> 00:13:08.721 align:center line:74% position:36% size:73%
OPEN THROUGH MONDAY MORNING. 

00:13:08.721 --> 00:13:11.924 align:center line:74% position:50% size:80%
LIKEWISE THE EXHIBITION HALL AT 

00:13:11.924 --> 00:13:16.362 align:center line:74% position:29% size:65%
SEATTLE CENTER AND TO THE 

00:13:16.362 --> 00:13:17.730 align:center line:74% position:40% size:75%
ARMORY WILL BOTH BE AVAILABLE 

00:13:17.730 --> 00:13:19.832 align:center line:74% position:44% size:78%
AND OPEN UNTIL MONDAY MORNING. 

00:13:19.832 --> 00:13:24.537 align:center line:74% position:50% size:80%
WE HAVE THOSE SHELTER RESOURCES.

00:13:24.537 --> 00:13:29.742 align:center line:74% position:31% size:68%
THEY ARE OPEN CONTINUOUSLY 

00:13:29.742 --> 00:13:31.177 align:center line:74% position:44% size:78%
WHILE THE WEATHER CONTINUES TO 

00:13:31.177 --> 00:13:31.877 align:center line:74% position:13% size:23%
DEVELOP. 

00:13:31.877 --> 00:13:36.682 align:center line:74% position:40% size:75%
WE ARE ALSO COORDINATING WITH 

00:13:36.682 --> 00:13:37.683 align:center line:74% position:36% size:73%
SERVICE PROVIDERS TO WORK ON 

00:13:37.683 --> 00:13:39.485 align:center line:74% position:40% size:75%
EXIT PLANS FOR PEOPLE STAYING 

00:13:39.485 --> 00:13:41.387 align:center line:74% position:17% size:43%
IN THE SHELTERS. 

00:13:41.387 --> 00:13:42.388 align:center line:74% position:40% size:75%
THOSE COULD INCLUDE ASSESSING 

00:13:42.388 --> 00:13:43.389 align:center line:74% position:50% size:80%
THEM FOR HOUSING PLACEMENTS AND 

00:13:43.389 --> 00:13:43.989 align:center line:74% position:27% size:63%
MATCHING THEM WITH OTHER 

00:13:43.989 --> 00:13:48.294 align:center line:74% position:44% size:78%
SERVICES IN THE AREA THAT THEY 

00:13:48.294 --> 00:13:49.295 align:center line:74% position:25% size:60%
MAY NEED BUT DOING THAT 

00:13:49.295 --> 00:13:50.095 align:center line:74% position:40% size:75%
UNDERSTANDING THAT THE ENTIRE 

00:13:50.095 --> 00:13:51.297 align:center line:74% position:40% size:75%
SYSTEM IS STRAINED RIGHT NOW. 

00:13:51.297 --> 00:13:52.364 align:center line:74% position:44% size:78%
WE HAVE SERVICE PROVIDERS THAT 

00:13:52.364 --> 00:13:53.699 align:center line:74% position:36% size:73%
HAVE ALSO, LIKE CITY WORKERS 

00:13:53.699 --> 00:13:57.303 align:center line:74% position:36% size:73%
BEEN WORKING 24/7 AND REALLY 

00:13:57.303 --> 00:14:01.140 align:center line:74% position:40% size:75%
TRYING TO MAXIMIZE SPACES AND 

00:14:01.140 --> 00:14:04.310 align:center line:74% position:50% size:80%
STAFFING TO SERVE PEOPLE DURING 

00:14:04.310 --> 00:14:07.980 align:center line:74% position:15% size:33%
THIS CRISIS. 

00:14:07.980 --> 00:14:09.415 align:center line:74% position:36% size:73%
I WANT TO GIVE MY THANKS AND 

00:14:09.415 --> 00:14:12.084 align:center line:74% position:40% size:75%
APPRECIATION TO THOSE SERVICE 

00:14:12.084 --> 00:14:17.690 align:center line:74% position:14% size:28%
PROVIDERS. 

00:14:17.690 --> 00:14:19.124 align:center line:74% position:44% size:78%
TO THE CITY AND ITS ABILITY TO 

00:14:19.124 --> 00:14:19.925 align:center line:74% position:44% size:78%
SERVE OUR VULNERABLE RESIDENTS 

00:14:19.925 --> 00:14:21.594 align:center line:74% position:27% size:63%
IS ONLY AS STRONG AS OUR 

00:14:21.594 --> 00:14:25.030 align:center line:74% position:36% size:73%
PARTNERSHIP WITH THE SERVICE 

00:14:25.030 --> 00:14:26.498 align:center line:74% position:33% size:70%
PROVIDERS AND WE ARE REALLY 

00:14:26.498 --> 00:14:27.433 align:center line:74% position:25% size:60%
THANKFUL THAT THEY HAVE 

00:14:27.433 --> 00:14:28.434 align:center line:74% position:40% size:75%
CONTINUED TO KEEP THEIR DOORS 

00:14:28.434 --> 00:14:28.667 align:center line:74% position:12% size:15%
OPEN. 

00:14:28.667 --> 00:14:32.137 align:center line:74% position:40% size:75%
YESTERDAY WE DID A FULL CHECK 

00:14:32.137 --> 00:14:32.972 align:center line:74% position:27% size:63%
UP ALL OF OUR CONTRACTED 

00:14:32.972 --> 00:14:34.640 align:center line:74% position:44% size:78%
PROVIDERS AND VERY VERY FEW OF 

00:14:34.640 --> 00:14:37.943 align:center line:74% position:36% size:73%
THEM HAD TO KEEP THEIR DOORS 

00:14:37.943 --> 00:14:38.210 align:center line:74% position:13% size:20%
CLOSED. 

00:14:38.210 --> 00:14:40.045 align:center line:74% position:44% size:78%
SO REALLY WE WANT TO HONOR THE 

00:14:40.045 --> 00:14:42.915 align:center line:74% position:50% size:80%
FACT THAT THEY KEPT THEIR DOORS 

00:14:42.915 --> 00:14:44.149 align:center line:74% position:50% size:80%
OPEN AND STAYED IN BUSINESS AND 

00:14:44.149 --> 00:14:50.155 align:center line:74% position:31% size:68%
CONTINUED TO SERVE PEOPLE. 

00:14:50.155 --> 00:14:51.457 align:center line:74% position:44% size:78%
I ALSO WANT TO THINK THE HUMAN 

00:14:51.457 --> 00:14:52.124 align:center line:74% position:44% size:78%
SERVICES DEPARTMENT EMPLOYEES. 

00:14:52.124 --> 00:14:52.858 align:center line:74% position:36% size:73%
IN PARTICULAR THE NAVIGATION 

00:14:52.858 --> 00:14:56.128 align:center line:74% position:29% size:65%
TEAM AND THE FOLKS IN OUR 

00:14:56.128 --> 00:14:57.263 align:center line:74% position:22% size:55%
HOMELESS STRATEGY AND 

00:14:57.263 --> 00:14:58.364 align:center line:74% position:21% size:53%
INVESTMENT DIVISION. 

00:14:58.364 --> 00:14:59.732 align:center line:74% position:40% size:75%
THEY REALLY HAVE BEEN WORKING 

00:14:59.732 --> 00:15:00.566 align:center line:74% position:36% size:73%
AROUND THE CLOCK COMBING THE 

00:15:00.566 --> 00:15:04.870 align:center line:74% position:36% size:73%
STREETS AND MAKING SURE THAT 

00:15:04.870 --> 00:15:05.471 align:center line:74% position:33% size:70%
EVERY INDIVIDUAL KNOWS WHAT 

00:15:05.471 --> 00:15:08.674 align:center line:74% position:50% size:80%
SHELTER RESOURCES ARE AVAILABLE 

00:15:08.674 --> 00:15:10.342 align:center line:74% position:44% size:78%
AND HAS SOME TRANSPORTATION TO 

00:15:10.342 --> 00:15:13.078 align:center line:74% position:31% size:68%
GET TO AN INDOOR FACILITY. 

00:15:13.078 --> 00:15:20.886 align:center line:74% position:29% size:65%
OVER THIS FOUR NIGHTS THE 

00:15:20.886 --> 00:15:21.687 align:center line:74% position:50% size:80%
NAVIGATION CENTERS OUTREACH HAS 

00:15:21.687 --> 00:15:28.260 align:center line:74% position:50% size:80%
GONE 137 PEOPLE OUT OF THE COLD 

00:15:28.260 --> 00:15:28.994 align:center line:74% position:18% size:45%
AND INTO SHELTER. 

00:15:28.994 --> 00:15:30.729 align:center line:74% position:44% size:78%
I WANT TO HONOR THEM AND THANK 

00:15:30.729 --> 00:15:31.964 align:center line:74% position:12% size:15%
THEM. 

00:15:31.964 --> 00:15:33.098 align:center line:74% position:29% size:65%
THEY CONTINUE TO CALM THE 

00:15:33.098 --> 00:15:36.168 align:center line:74% position:31% size:68%
STREETS TODAY AND TONIGHT. 

00:15:36.168 --> 00:15:37.002 align:center line:74% position:36% size:73%
THEY ARE INSIDE THE SHELTERS 

00:15:37.002 --> 00:15:38.404 align:center line:74% position:36% size:73%
MAKING SURE PEOPLE ARE SAFE. 

00:15:38.404 --> 00:15:39.271 align:center line:74% position:44% size:78%
THEY ARE DOING INCREDIBLE LIFE-

00:15:39.271 --> 00:15:42.675 align:center line:74% position:44% size:78%
SAVING WORK AND I'M INCREDIBLY 

00:15:42.675 --> 00:15:44.376 align:center line:74% position:50% size:80%
THANKFUL TO BE PART OF THE TEAM.

00:15:44.376 --> 00:15:46.312 align:center line:74% position:25% size:60%
&gt;&gt; I ALSO WANT TO THANK 

00:15:46.312 --> 00:15:50.983 align:center line:74% position:40% size:75%
NORDSTROM, AMAZON, STARBUCKS, 

00:15:50.983 --> 00:15:51.817 align:center line:74% position:31% size:68%
AND COSTCO FOR BEING GREAT 

00:15:51.817 --> 00:15:53.319 align:center line:74% position:33% size:70%
PARTNERS IN DONATING ITEMS. 

00:15:53.319 --> 00:15:54.620 align:center line:74% position:50% size:80%
THEY HAVE BEEN ABLE TO DONATE A 

00:15:54.620 --> 00:16:00.125 align:center line:74% position:50% size:80%
NUMBER OF FOOD ITEMS AS WELL AS 

00:16:00.125 --> 00:16:01.493 align:center line:74% position:44% size:78%
ITEMS TO KEEP PEOPLE WARM LIKE 

00:16:01.493 --> 00:16:03.529 align:center line:74% position:50% size:80%
GLOVES AND SOCKS AND UNDERWEAR. 

00:16:03.529 --> 00:16:04.596 align:center line:74% position:36% size:73%
BLANKETS AND COATS AND THOSE 

00:16:04.596 --> 00:16:05.931 align:center line:74% position:22% size:55%
DONATIONS WENT TO THE 

00:16:05.931 --> 00:16:07.032 align:center line:74% position:50% size:80%
NAVIGATION TEAM. THE NAVIGATION 

00:16:07.032 --> 00:16:16.542 align:center line:74% position:40% size:75%
TEAM HAS THE ABILITY TO OFFER 

00:16:16.542 --> 00:16:17.409 align:center line:74% position:44% size:78%
THOSE ITEMS TO INDIVIDUALS WHO 

00:16:17.409 --> 00:16:17.910 align:center line:74% position:17% size:43%
REMAIN OUTDOORS. 

00:16:17.910 --> 00:16:18.944 align:center line:74% position:50% size:80%
THEY ARE ALSO DISTRIBUTING MANY 

00:16:18.944 --> 00:16:20.045 align:center line:74% position:44% size:78%
OF THOSE ITEMS TO THE SHELTERS 

00:16:20.045 --> 00:16:21.347 align:center line:74% position:33% size:70%
THAT ARE STAYING OPEN FOR A 

00:16:21.347 --> 00:16:22.448 align:center line:74% position:31% size:68%
STRETCH TO BE ABLE TO FEED 

00:16:22.448 --> 00:16:22.748 align:center line:74% position:12% size:18%
FOLKS. 

00:16:22.748 --> 00:16:25.517 align:center line:74% position:31% size:68%
PEOPLE COME IN VERY WET SO 

00:16:25.517 --> 00:16:28.454 align:center line:74% position:44% size:78%
THESE ITEMS ARE REALLY PART OF 

00:16:28.454 --> 00:16:29.321 align:center line:74% position:40% size:75%
THIS LIFE-SAVING EFFORT AND I 

00:16:29.321 --> 00:16:33.425 align:center line:74% position:36% size:73%
JUST WANT TO HONOR AND THANK 

00:16:33.425 --> 00:16:34.460 align:center line:74% position:33% size:70%
THOSE BUSINESSES FOR REALLY 

00:16:34.460 --> 00:16:35.060 align:center line:74% position:15% size:33%
STEPPING UP. 

00:16:35.060 --> 00:16:38.030 align:center line:74% position:50% size:80%
FINALLY I JUST WANT TO ADD THAT 

00:16:38.030 --> 00:16:42.368 align:center line:74% position:44% size:78%
WE ARE ALSO CALLING VULNERABLE 

00:16:42.368 --> 00:16:43.135 align:center line:74% position:44% size:78%
CITIZENS THROUGHOUT THE COUNTY 

00:16:43.135 --> 00:16:46.472 align:center line:74% position:31% size:68%
AND MAKING SURE THAT FOLKS 

00:16:46.472 --> 00:16:47.272 align:center line:74% position:36% size:73%
ESPECIALLY WHO ARE HOMEBOUND 

00:16:47.272 --> 00:16:48.273 align:center line:74% position:40% size:75%
HAVE THE SERVICES AND SUPPORT 

00:16:48.273 --> 00:16:49.942 align:center line:74% position:17% size:40%
THAT THEY NEED. 

00:16:49.942 --> 00:16:51.643 align:center line:74% position:44% size:78%
WE HAVE BEEN DOING PHONE TREES 

00:16:51.643 --> 00:16:53.879 align:center line:74% position:40% size:75%
SINCE SUNDAY AND I'M HAPPY TO 

00:16:53.879 --> 00:16:58.183 align:center line:74% position:44% size:78%
REPORT THAT PEOPLE DO HAVE THE 

00:16:58.183 --> 00:16:58.884 align:center line:74% position:27% size:63%
SUPPORTS THAT THEY NEED. 

00:16:58.884 --> 00:17:00.085 align:center line:74% position:50% size:80%
AGAIN SERVICE PROVIDERS AS WELL 

00:17:00.085 --> 00:17:01.086 align:center line:74% position:40% size:75%
AS STAFF ARE DOING EVERYTHING 

00:17:01.086 --> 00:17:06.291 align:center line:74% position:50% size:80%
POSSIBLE TO PROVIDE MUCH-NEEDED 

00:17:06.291 --> 00:17:07.292 align:center line:74% position:50% size:80%
SUPPORT TO INDIVIDUALS IN THEIR 

00:17:07.292 --> 00:17:10.396 align:center line:74% position:50% size:80%
HOMES AND IN THESE SHELTERS AND 

00:17:10.396 --> 00:17:13.599 align:center line:74% position:36% size:73%
I AM INCREDIBLY THANKFUL FOR 

00:17:13.599 --> 00:17:21.707 align:center line:74% position:16% size:38%
THEIR EFFORTS. 

00:17:21.707 --> 00:17:22.875 align:center line:74% position:17% size:43%
&gt;&gt; GOOD MORNING. 

00:17:22.875 --> 00:17:25.711 align:center line:74% position:29% size:65%
SEATTLE PUBLIC UTILITIES. 

00:17:25.711 --> 00:17:28.280 align:center line:74% position:36% size:73%
GARBAGE, RECYCLING, YARD AND 

00:17:28.280 --> 00:17:29.481 align:center line:74% position:27% size:63%
FOOD WASTE COLLECTION IS 

00:17:29.481 --> 00:17:34.820 align:center line:74% position:31% size:68%
DEPENDENT ON SAFE ROAD AND 

00:17:34.820 --> 00:17:35.788 align:center line:74% position:50% size:80%
WEATHER CONDITIONS BOTH FOR OUR 

00:17:35.788 --> 00:17:36.822 align:center line:74% position:36% size:73%
DRIVERS AND FOR RESIDENTS ON 

00:17:36.822 --> 00:17:37.623 align:center line:74% position:15% size:35%
THE PROPERTY. 

00:17:37.623 --> 00:17:38.223 align:center line:74% position:36% size:73%
THIS SERIES OF WINTER STORMS 

00:17:38.223 --> 00:17:39.792 align:center line:74% position:31% size:68%
LINED UP ONE AND AFTER THE 

00:17:39.792 --> 00:17:44.530 align:center line:74% position:44% size:78%
OTHER HAS PRESENTED A HISTORIC 

00:17:44.530 --> 00:17:45.697 align:center line:74% position:36% size:73%
CHALLENGE TO OUR DRIVERS WHO 

00:17:45.697 --> 00:17:46.331 align:center line:74% position:21% size:53%
PICK UP SOLID WASTE. 

00:17:46.331 --> 00:17:48.400 align:center line:74% position:25% size:60%
WE KNOW THAT IT IS VERY 

00:17:48.400 --> 00:17:51.603 align:center line:74% position:27% size:63%
FRUSTRATING WHEN YOU ARE 

00:17:51.603 --> 00:17:55.340 align:center line:74% position:40% size:75%
RECYCLING FOOD AND YARD WASTE 

00:17:55.340 --> 00:17:56.041 align:center line:74% position:40% size:75%
AND ESPECIALLY GARBAGE IS NOT 

00:17:56.041 --> 00:17:57.109 align:center line:74% position:24% size:58%
PICKED UP SO WE REALLY 

00:17:57.109 --> 00:18:03.816 align:center line:74% position:29% size:65%
APPRECIATE THE PATIENT'S. 

00:18:03.816 --> 00:18:05.050 align:center line:74% position:44% size:78%
AND UNDERSTANDING THAT WE MUST 

00:18:05.050 --> 00:18:05.818 align:center line:74% position:24% size:58%
WAIT FOR THE NEXT SAFE 

00:18:05.818 --> 00:18:06.318 align:center line:74% position:19% size:48%
COLLECTION WINDOW. 

00:18:06.318 --> 00:18:08.454 align:center line:74% position:36% size:73%
SEATTLE PUBLIC UTILITIES AND 

00:18:08.454 --> 00:18:09.121 align:center line:74% position:40% size:75%
CONTRACTORS HAVE BEEN DRIVING 

00:18:09.121 --> 00:18:10.322 align:center line:74% position:25% size:60%
AND ASSESSING THE ROADS 

00:18:10.322 --> 00:18:13.725 align:center line:74% position:31% size:68%
CONTINUOUSLY AND HAVE BEEN 

00:18:13.725 --> 00:18:14.426 align:center line:74% position:29% size:65%
TAKING ADVANTAGE OF EVERY 

00:18:14.426 --> 00:18:15.427 align:center line:74% position:21% size:53%
WEATHER OPPORTUNITY. 

00:18:15.427 --> 00:18:16.361 align:center line:74% position:29% size:65%
TODAY CREWS RUNNING MULTI 

00:18:16.361 --> 00:18:19.264 align:center line:74% position:36% size:73%
FAMILY AND COMMERCIAL TRUCKS 

00:18:19.264 --> 00:18:20.265 align:center line:74% position:50% size:80%
WILL PICK UP ACCESSIBLE GARBAGE 

00:18:20.265 --> 00:18:22.067 align:center line:74% position:29% size:65%
RECYCLING AND FOOD WASTE. 

00:18:22.067 --> 00:18:23.535 align:center line:74% position:40% size:75%
BECAUSE OF CONTINUED SNOW AND 

00:18:23.535 --> 00:18:27.372 align:center line:74% position:31% size:68%
ICE ON RESIDENTIAL STREETS 

00:18:27.372 --> 00:18:28.740 align:center line:74% position:33% size:70%
CREWS ARE UNABLE TO COLLECT 

00:18:28.740 --> 00:18:30.976 align:center line:74% position:31% size:68%
GARBAGE RECYCLING AND YARD 

00:18:30.976 --> 00:18:33.445 align:center line:74% position:29% size:65%
FITTED RICE TODAY FOR THE 

00:18:33.445 --> 00:18:34.079 align:center line:74% position:18% size:45%
MONDAY CUSTOMERS. 

00:18:34.079 --> 00:18:37.549 align:center line:74% position:27% size:63%
MONDAY CUSTOMERS ARE OUR 

00:18:37.549 --> 00:18:39.351 align:center line:74% position:31% size:68%
PRIORITY FOR PICK UP SO IF 

00:18:39.351 --> 00:18:40.152 align:center line:74% position:36% size:73%
CONDITIONS ALLOW THEIR WASTE 

00:18:40.152 --> 00:18:42.387 align:center line:74% position:33% size:70%
WILL BE PICKED UP TOMORROW. 

00:18:42.387 --> 00:18:43.822 align:center line:74% position:31% size:68%
CUSTOMERS CAN SET UP THEIR 

00:18:43.822 --> 00:18:48.994 align:center line:74% position:25% size:60%
GARBAGE FREE OF CHARGE. 

00:18:48.994 --> 00:18:51.296 align:center line:74% position:36% size:73%
TUESDAY AND FRIDAY CUSTOMERS 

00:18:51.296 --> 00:18:52.831 align:center line:74% position:44% size:78%
WILL BE COLLECTED ON A DELAYED 

00:18:52.831 --> 00:18:55.000 align:center line:74% position:40% size:75%
SCHEDULE AND SERVICES WILL BE 

00:18:55.000 --> 00:18:59.671 align:center line:74% position:40% size:75%
EXTENDED THROUGH THE WEEKEND. 

00:18:59.671 --> 00:19:00.506 align:center line:74% position:21% size:53%
THIS IS AN IMPORTANT 

00:19:00.506 --> 00:19:01.607 align:center line:74% position:40% size:75%
ANNOUNCEMENT WE WOULD LIKE TO 

00:19:01.607 --> 00:19:02.508 align:center line:74% position:44% size:78%
MAKE FOR FOLKS WHO COLLECTIONS 

00:19:02.508 --> 00:19:04.309 align:center line:74% position:50% size:80%
HAVE BEEN DELAYED FOR MORE THAN 

00:19:04.309 --> 00:19:06.211 align:center line:74% position:13% size:25%
ONE WEEK. 

00:19:06.211 --> 00:19:07.412 align:center line:74% position:27% size:63%
THE CITY WILL ALLOW FREE 

00:19:07.412 --> 00:19:08.714 align:center line:74% position:40% size:75%
DISPOSAL OF GARBAGE RECYCLING 

00:19:08.714 --> 00:19:14.086 align:center line:74% position:44% size:78%
AND FOOD WASTE AT CITY STATIONS

00:19:14.086 --> 00:19:14.920 align:center line:74% position:27% size:63%
, CITY TRANSFER STATIONS 

00:19:14.920 --> 00:19:16.989 align:center line:74% position:44% size:78%
BETWEEN FEBRUARY 13 AND 16 FOR 

00:19:16.989 --> 00:19:20.526 align:center line:74% position:50% size:80%
ANY RESIDENTIAL CUSTOMERS WHOSE 

00:19:20.526 --> 00:19:21.426 align:center line:74% position:40% size:75%
COLLECTIONS HAVE BEEN DELAYED 

00:19:21.426 --> 00:19:23.295 align:center line:74% position:22% size:55%
FOR MORE THAN A WEEK. 

00:19:23.295 --> 00:19:27.332 align:center line:74% position:31% size:68%
WE WILL PROVIDE THE LATEST 

00:19:27.332 --> 00:19:28.233 align:center line:74% position:50% size:80%
UPDATES AND DETAILS ABOUT SOLID 

00:19:28.233 --> 00:19:32.337 align:center line:74% position:44% size:78%
WASTE COLLECTIONS HONOR WEBSITE

00:19:32.337 --> 00:19:33.605 align:center line:74% position:21% size:53%
. PLEASE SIGN UP FOR 

00:19:33.605 --> 00:19:37.309 align:center line:74% position:44% size:78%
NOTIFICATIONS PUBLIC UTILITIES 

00:19:37.309 --> 00:19:42.214 align:center line:74% position:29% size:65%
CREWS RELATED TO WATER OR 

00:19:42.214 --> 00:19:44.716 align:center line:74% position:33% size:70%
WASTEWATER AND DRAINAGE. IF 

00:19:44.716 --> 00:19:45.417 align:center line:74% position:33% size:70%
CUSTOMERS HAVE FROZEN PIPES 

00:19:45.417 --> 00:19:49.955 align:center line:74% position:44% size:78%
PLEASE DO NOT USE A BLOWTORCH, 

00:19:49.955 --> 00:19:51.924 align:center line:74% position:33% size:70%
KEROSENE HEATER, OR PROPANE 

00:19:51.924 --> 00:19:55.360 align:center line:74% position:44% size:78%
HEATER, CHARCOAL STOVE, OR ANY 

00:19:55.360 --> 00:19:57.029 align:center line:74% position:44% size:78%
OPEN FLAME TO THAW YOUR PIPES. 

00:19:57.029 --> 00:20:01.867 align:center line:74% position:29% size:65%
IT'S EXTREMELY DANGEROUS. 

00:20:01.867 --> 00:20:03.168 align:center line:74% position:33% size:70%
WE HAVE TIPS ON HOW TO THAW 

00:20:03.168 --> 00:20:04.236 align:center line:74% position:33% size:70%
PIPES AS WELL AS PROTECTING 

00:20:04.236 --> 00:20:05.704 align:center line:74% position:29% size:65%
THEM FROM FREEZING ON OUR 

00:20:05.704 --> 00:20:11.376 align:center line:74% position:50% size:80%
WEBSITE. TEMPERATURES ARE ABOVE 

00:20:11.376 --> 00:20:15.881 align:center line:74% position:40% size:75%
FREEZING TODAY SO AS SNOW AND 

00:20:15.881 --> 00:20:16.582 align:center line:74% position:27% size:63%
ICE SLOWLY MELT FLOODING 

00:20:16.582 --> 00:20:19.885 align:center line:74% position:36% size:73%
BECOMES A SERIOUS CONCERN AS 

00:20:19.885 --> 00:20:20.886 align:center line:74% position:44% size:78%
ICED OVER STORM DRAINS PREVENT 

00:20:20.886 --> 00:20:21.954 align:center line:74% position:29% size:65%
MELTED SNOW AND RAIN FROM 

00:20:21.954 --> 00:20:25.857 align:center line:74% position:31% size:68%
ENTERING THE STORM DRAINS. 

00:20:25.857 --> 00:20:27.159 align:center line:74% position:36% size:73%
WE HAVE TENS OF THOUSANDS OF 

00:20:27.159 --> 00:20:32.297 align:center line:74% position:44% size:78%
DRAINS IN THE CITY AND YOU CAN 

00:20:32.297 --> 00:20:33.098 align:center line:74% position:50% size:80%
HELP PREVENT LOCALIZED FLOODING 

00:20:33.098 --> 00:20:33.899 align:center line:74% position:25% size:60%
IN YOUR NEIGHBORHOOD BY 

00:20:33.899 --> 00:20:35.701 align:center line:74% position:36% size:73%
CLEARING THE DRAIN AND LET'S 

00:20:35.701 --> 00:20:37.002 align:center line:74% position:31% size:68%
NEAR YOUR HOME WITH A SNOW 

00:20:37.002 --> 00:20:37.402 align:center line:74% position:13% size:20%
SHOVEL. 

00:20:37.402 --> 00:20:38.604 align:center line:74% position:29% size:65%
IF YOU DO NOT HAVE A SNOW 

00:20:38.604 --> 00:20:41.206 align:center line:74% position:33% size:70%
SHOVEL YOU CAN USE A GARDEN 

00:20:41.206 --> 00:20:44.409 align:center line:74% position:36% size:73%
SHOVEL, RAKE, OR DUSTPAN AND 

00:20:44.409 --> 00:20:45.510 align:center line:74% position:40% size:75%
MAKE SURE TO GET THE OPENINGS 

00:20:45.510 --> 00:20:47.512 align:center line:74% position:50% size:80%
IN THE DRAINS TO ALLOW WATER TO 

00:20:47.512 --> 00:20:48.213 align:center line:74% position:15% size:35%
FLOW THROUGH. 

00:20:48.213 --> 00:20:49.114 align:center line:74% position:36% size:73%
PLEASE REMEMBER TO WORK FROM 

00:20:49.114 --> 00:20:50.816 align:center line:74% position:40% size:75%
THE SIDEWALK OR PARKING STRIP 

00:20:50.816 --> 00:20:54.620 align:center line:74% position:50% size:80%
AND STAY OUT OF THE STREET WHEN 

00:20:54.620 --> 00:20:57.723 align:center line:74% position:36% size:73%
YOU ARE CLEARING YOUR DRAINS 

00:20:57.723 --> 00:21:08.100 align:center line:74% position:22% size:55%
AND PLEASE STAY SAFE. 

00:21:08.800 --> 00:21:09.635 align:center line:74% position:24% size:58%
&gt;&gt; GOOD AFTERNOON I AM 

00:21:09.635 --> 00:21:10.302 align:center line:74% position:29% size:65%
CHRISTOPHER WILLIAMS WITH 

00:21:10.302 --> 00:21:10.769 align:center line:74% position:16% size:38%
SEATTLE PARKS. 

00:21:10.769 --> 00:21:12.571 align:center line:74% position:50% size:80%
I WILL TAKE THE MAYOR FOR THEIR 

00:21:12.571 --> 00:21:16.808 align:center line:74% position:50% size:80%
TEAM. WE HAVE COMMUNITY CENTERS 

00:21:16.808 --> 00:21:23.515 align:center line:74% position:22% size:55%
OPEN ACROSS THE CITY. 

00:21:23.515 --> 00:21:24.950 align:center line:74% position:36% size:73%
WE HAVE SIX OUT OF 10 PUBLIC 

00:21:24.950 --> 00:21:25.851 align:center line:74% position:50% size:80%
SWIMMING POOLS AVAILABLE TODAY. 

00:21:25.851 --> 00:21:27.019 align:center line:74% position:36% size:73%
WE DO NOT OPERATE BEFORE AND 

00:21:27.019 --> 00:21:27.819 align:center line:74% position:50% size:80%
AFTER SCHOOL CHILDCARE PROGRAMS 

00:21:27.819 --> 00:21:28.687 align:center line:74% position:27% size:63%
WHEN THE SCHOOL DISTRICT 

00:21:28.687 --> 00:21:29.021 align:center line:74% position:14% size:28%
DISCLOSED. 

00:21:29.021 --> 00:21:31.723 align:center line:74% position:29% size:65%
WE MIRROR THEIR SCHEDULE. 

00:21:31.723 --> 00:21:37.029 align:center line:74% position:44% size:78%
WE ARE OPERATING TWO EMERGENCY 

00:21:37.029 --> 00:21:45.671 align:center line:74% position:36% size:73%
SHELTERS YESTERDAY THEY SAID 

00:21:45.671 --> 00:21:48.473 align:center line:74% position:29% size:65%
THE COMBINED 300 MEALS TO 

00:21:48.473 --> 00:21:52.778 align:center line:74% position:40% size:75%
PARTICIPANTS IN THE SHELTERS. 

00:21:52.778 --> 00:21:54.046 align:center line:74% position:40% size:75%
WE HAVE ALSO HEARD THAT STAFF 

00:21:54.046 --> 00:21:57.683 align:center line:74% position:50% size:80%
IS WORKING 12 AND 15 HOUR SHIFTS

00:21:57.683 --> 00:21:59.284 align:center line:74% position:36% size:73%
AND WE ARE LOOKING TO EXPAND 

00:21:59.284 --> 00:22:02.287 align:center line:74% position:50% size:80%
THE POOL OF EMPLOYEES WHO CAN'T 

00:22:02.287 --> 00:22:03.722 align:center line:74% position:27% size:63%
BE AVAILABLE TO WORK THE 

00:22:03.722 --> 00:22:07.626 align:center line:74% position:44% size:78%
SHELTERS AS WE STAY OPEN UNTIL 

00:22:07.626 --> 00:22:10.462 align:center line:74% position:13% size:20%
MONDAY. 

00:22:10.462 --> 00:22:11.797 align:center line:74% position:29% size:65%
THE MAINTENANCE CREWS ARE 

00:22:11.797 --> 00:22:12.798 align:center line:74% position:29% size:65%
HELPING OUT JUST TO CLEAR 

00:22:12.798 --> 00:22:20.806 align:center line:74% position:36% size:73%
ACROSS THE CITY WE HAVE ALSO 

00:22:20.806 --> 00:22:26.778 align:center line:74% position:40% size:75%
ASKED THEM TO CLEAN THE STORM 

00:22:26.778 --> 00:22:27.012 align:center line:74% position:13% size:20%
DRAINS. 

00:22:27.012 --> 00:22:33.585 align:center line:74% position:44% size:78%
THAT'S A LOT OF PEOPLE. WE ARE 

00:22:33.585 --> 00:22:38.690 align:center line:74% position:36% size:73%
ASKING NATURAL AREA CREWS TO 

00:22:38.690 --> 00:22:43.195 align:center line:74% position:50% size:80%
MONITOR HILLS IN THE 2500 ACRES 

00:22:43.195 --> 00:22:48.033 align:center line:74% position:50% size:80%
OF GREEN BUILDS. WE ARE KEEPING 

00:22:48.033 --> 00:22:50.836 align:center line:74% position:44% size:78%
AN EYE ON SLIDE PRONE AREAS TO 

00:22:50.836 --> 00:22:57.743 align:center line:74% position:24% size:58%
PAY ATTENTION TO THAT. 

00:22:57.743 --> 00:22:59.044 align:center line:74% position:31% size:68%
THE TREES HAVE COME DOWN A 

00:22:59.044 --> 00:23:00.746 align:center line:74% position:33% size:70%
BUCKLED UNDER THE WEIGHT OF 

00:23:00.746 --> 00:23:04.850 align:center line:74% position:40% size:75%
SNOW AND ICE SO THESE ARE THE 

00:23:04.850 --> 00:23:05.951 align:center line:74% position:50% size:80%
ACTIVITIES THAT YOUR LOCAL PARK 

00:23:05.951 --> 00:23:07.219 align:center line:74% position:36% size:73%
AND RECREATION DEPARTMENT IS 

00:23:07.219 --> 00:23:13.024 align:center line:74% position:33% size:70%
ENGAGING IN. I ALSO WANT TO 

00:23:13.024 --> 00:23:15.260 align:center line:74% position:33% size:70%
GIVE A SHOUT OUT TO SPU WHO 

00:23:15.260 --> 00:23:17.028 align:center line:74% position:36% size:73%
HELP THE STAFF AT THE BITTER 

00:23:17.028 --> 00:23:22.067 align:center line:74% position:50% size:80%
LAKE COMMUNITY CENTER YESTERDAY.

00:23:22.067 --> 00:23:31.543 align:center line:74% position:36% size:73%
&gt;&gt; I WANT TO THANK THE MAYOR 

00:23:31.543 --> 00:23:32.477 align:center line:74% position:44% size:78%
FOR HER LEADERSHIP DURING THIS 

00:23:32.477 --> 00:23:33.945 align:center line:74% position:36% size:73%
DIFFICULT TIME AND THINK THE 

00:23:33.945 --> 00:23:36.782 align:center line:74% position:44% size:78%
COMMUNITY AND OUR PARTNERS AND 

00:23:36.782 --> 00:23:37.983 align:center line:74% position:50% size:80%
ALL OF THE DEPARTMENTS BUT MOST 

00:23:37.983 --> 00:23:39.050 align:center line:74% position:40% size:75%
OF ALL THE FRONT-LINE WORKERS 

00:23:39.050 --> 00:23:40.285 align:center line:74% position:36% size:73%
WHO HAVE BEEN OUT THERE FROM 

00:23:40.285 --> 00:23:41.086 align:center line:74% position:24% size:58%
ALL OF THESE DIFFERENT 

00:23:41.086 --> 00:23:42.587 align:center line:74% position:50% size:80%
DEPARTMENTS EACH AND EVERY DAY. 

00:23:42.587 --> 00:23:45.090 align:center line:74% position:33% size:70%
PLEASE MAINTAIN SITUATIONAL 

00:23:45.090 --> 00:23:55.300 align:center line:74% position:14% size:30%
AWARENESS.. 

00:24:02.874 --> 00:24:04.009 align:center line:74% position:50% size:80%
LET'S NOT HAVE DEVICES THAT ARE 

00:24:04.009 --> 00:24:04.810 align:center line:74% position:31% size:68%
MEANT FOR OUTDOORS BROUGHT 

00:24:04.810 --> 00:24:08.280 align:center line:74% position:50% size:80%
INSIDE FOR COOKING AND WARMING. 

00:24:08.280 --> 00:24:09.714 align:center line:74% position:40% size:75%
IF YOU GET A NOTICE THAT YOUR 

00:24:09.714 --> 00:24:10.682 align:center line:74% position:33% size:70%
POWER WILL BE OUT OVERNIGHT 

00:24:10.682 --> 00:24:11.917 align:center line:74% position:36% size:73%
THERE ARE SHELTERS AND THERE 

00:24:11.917 --> 00:24:13.351 align:center line:74% position:44% size:78%
ARE FRIENDS THAT YOU SHOULD GO 

00:24:13.351 --> 00:24:16.321 align:center line:74% position:40% size:75%
TO LET'S MAINTAIN SITUATIONAL 

00:24:16.321 --> 00:24:17.322 align:center line:74% position:36% size:73%
AWARENESS IF YOU ARE WALKING 

00:24:17.322 --> 00:24:18.023 align:center line:74% position:24% size:58%
AND DRIVING AROUND THE 

00:24:18.023 --> 00:24:19.291 align:center line:74% position:29% size:65%
COMMUNITY LET'S BE PAYING 

00:24:19.291 --> 00:24:23.829 align:center line:74% position:36% size:73%
ATTENTION. THAT WILL BE VERY 

00:24:23.829 --> 00:24:24.329 align:center line:74% position:18% size:45%
IMPORTANT FOR US. 

00:24:24.329 --> 00:24:29.835 align:center line:74% position:50% size:80%
AS THE SNOW BEGINS TO MELT THEY 

00:24:29.835 --> 00:24:35.040 align:center line:74% position:40% size:75%
ARE ALL WORKING PROPERLY THEY 

00:24:35.040 --> 00:24:36.708 align:center line:74% position:36% size:73%
START PUTTING UP LADDERS AND 

00:24:36.708 --> 00:24:39.644 align:center line:74% position:33% size:70%
CLEARING THE DRAINS WE KNOW 

00:24:39.644 --> 00:24:41.046 align:center line:74% position:50% size:80%
THAT THE SNOW WAS HEAVY AND WET 

00:24:41.046 --> 00:24:44.349 align:center line:74% position:50% size:80%
AND IF IT STARTS TO FLY DOWN IT 

00:24:44.349 --> 00:24:45.550 align:center line:74% position:44% size:78%
HAS THE POTENTIAL TO KNOCK YOU 

00:24:45.550 --> 00:24:46.651 align:center line:74% position:19% size:48%
OFF THOSE LETTERS. 

00:24:46.651 --> 00:24:48.653 align:center line:74% position:29% size:65%
SITUATIONAL AWARENESS FOR 

00:24:48.653 --> 00:24:50.055 align:center line:74% position:40% size:75%
SAFETY IS WHAT WE ARE ASKING. 

00:24:50.055 --> 00:24:50.522 align:center line:74% position:14% size:28%
THANK YOU. 

00:24:50.522 --> 00:24:50.755 align:center line:74% position:13% size:20%
&gt;&gt; INC. 

00:24:50.755 --> 00:24:53.024 align:center line:74% position:16% size:38%
YOU VERY MUCH. 

00:24:53.024 --> 00:24:56.561 align:center line:74% position:44% size:78%
&gt;&gt; I WANT TO TAKE SOME Q&amp;A BUT 

00:24:56.561 --> 00:24:58.163 align:center line:74% position:50% size:80%
AGAIN JUST THINK EVERYBODY THAT 

00:24:58.163 --> 00:25:03.668 align:center line:74% position:21% size:53%
STEPPED OFF FROM THE 

00:25:03.668 --> 00:25:04.469 align:center line:74% position:50% size:80%
DEPARTMENTS ACROSS THE CITY BUT 

00:25:04.469 --> 00:25:05.670 align:center line:74% position:29% size:65%
IT IS HEARTWARMING TO SEE 

00:25:05.670 --> 00:25:06.771 align:center line:74% position:40% size:75%
EVERYDAY WHEN I HAVE GONE OUT 

00:25:06.771 --> 00:25:08.006 align:center line:74% position:21% size:53%
AND TALKS TO PEOPLE. 

00:25:08.006 --> 00:25:11.676 align:center line:74% position:29% size:65%
YESTERDAY AT THE GARFIELD 

00:25:11.676 --> 00:25:12.677 align:center line:74% position:50% size:80%
COMMUNITY CENTER THE WOMAN THAT 

00:25:12.677 --> 00:25:13.979 align:center line:74% position:50% size:80%
IS RUNNING THE KITCHEN THERE IS 

00:25:13.979 --> 00:25:15.280 align:center line:74% position:27% size:63%
AN EMPLOYEE OF PARKS AND 

00:25:15.280 --> 00:25:16.748 align:center line:74% position:14% size:30%
RECREATION. 

00:25:16.748 --> 00:25:17.949 align:center line:74% position:44% size:78%
SHE USUALLY WORKS IN THE POLLS 

00:25:17.949 --> 00:25:20.852 align:center line:74% position:44% size:78%
BUT SHE HAD BEEN A CHEF BEFORE 

00:25:20.852 --> 00:25:22.387 align:center line:74% position:12% size:15%
THAT. 

00:25:22.387 --> 00:25:23.788 align:center line:74% position:50% size:80%
SHE HAD BOTH HER SON AND MOTHER 

00:25:23.788 --> 00:25:24.389 align:center line:74% position:16% size:38%
THERE HELPING. 

00:25:24.389 --> 00:25:26.491 align:center line:74% position:40% size:75%
SHE TOLD A STORY THAT SHE WAS 

00:25:26.491 --> 00:25:32.497 align:center line:74% position:40% size:75%
NOT SURE OF WHAT WOULD BE THE 

00:25:32.497 --> 00:25:34.599 align:center line:74% position:14% size:28%
WISH LIST. 

00:25:34.599 --> 00:25:36.067 align:center line:74% position:36% size:73%
THEY TOOK A PICTURE OF THEIR 

00:25:36.067 --> 00:25:37.802 align:center line:74% position:33% size:70%
PHONE AND SHORTLY CAME BACK 

00:25:37.802 --> 00:25:44.209 align:center line:74% position:36% size:73%
WITH EVERYTHING THEY NEEDED. 

00:25:44.209 --> 00:25:45.410 align:center line:74% position:29% size:65%
WE REALLY SHOW A LEVEL OF 

00:25:45.410 --> 00:25:48.179 align:center line:74% position:50% size:80%
KINDNESS AND PATIENCE THAT WILL 

00:25:48.179 --> 00:25:53.818 align:center line:74% position:33% size:70%
GET THROUGH THIS NEXT BLOG. 

00:25:53.818 --> 00:25:55.120 align:center line:74% position:36% size:73%
WE THINK WE HAVE EXECUTED AS 

00:25:55.120 --> 00:25:57.923 align:center line:74% position:36% size:73%
WELL AS WE COULD HAVE BUT WE 

00:25:57.923 --> 00:25:58.924 align:center line:74% position:36% size:73%
ARE LEARNING LESSONS ALL THE 

00:25:58.924 --> 00:26:01.026 align:center line:74% position:50% size:80%
WAY THROUGH BUT WE WANT TO SAVE 

00:26:01.026 --> 00:26:03.695 align:center line:74% position:36% size:73%
FIRST AND LAST THANK YOU FOR 

00:26:03.695 --> 00:26:05.030 align:center line:74% position:40% size:75%
EVERYTHING THAT EVERYBODY HAS 

00:26:05.030 --> 00:26:07.699 align:center line:74% position:12% size:15%
DONE. 

00:26:07.699 --> 00:26:08.099 align:center line:74% position:14% size:28%
QUESTIONS? 

00:26:08.099 --> 00:26:09.234 align:center line:74% position:25% size:60%
&gt;&gt; I REALIZE THE SCHOOL 

00:26:09.234 --> 00:26:10.335 align:center line:74% position:44% size:78%
DISTRICT IS NOT HERE BUT THERE 

00:26:10.335 --> 00:26:14.205 align:center line:74% position:50% size:80%
WAS A MENTION OF FOCUS ON METRO 

00:26:14.205 --> 00:26:15.240 align:center line:74% position:33% size:70%
ROUTES AND AREAS WHERE KIDS 

00:26:15.240 --> 00:26:16.875 align:center line:74% position:44% size:78%
WILL BE DROPPED OFF AND PICKED 

00:26:16.875 --> 00:26:20.845 align:center line:74% position:29% size:65%
UP. HOW MUCH PRESSURE THE 

00:26:20.845 --> 00:26:22.047 align:center line:74% position:50% size:80%
SCHOOL DISTRICT BUT ON THE CITY 

00:26:22.047 --> 00:26:23.848 align:center line:74% position:50% size:80%
TO TRY TO CLEAR OUT THESE AREAS 

00:26:23.848 --> 00:26:24.249 align:center line:74% position:15% size:35%
NEAR SCHOOLS? 

00:26:24.249 --> 00:26:25.417 align:center line:74% position:25% size:60%
&gt;&gt; IT DID NOT EVEN TAKE 

00:26:25.417 --> 00:26:26.351 align:center line:74% position:13% size:25%
PRESSURE. 

00:26:26.351 --> 00:26:29.321 align:center line:74% position:40% size:75%
SAM ZIMBABWE HAS BEEN WORKING 

00:26:29.321 --> 00:26:30.455 align:center line:74% position:36% size:73%
WITH THE SCHOOL DISTRICT THE 

00:26:30.455 --> 00:26:31.256 align:center line:74% position:44% size:78%
WHOLE WAY THROUGH TO DETERMINE 

00:26:31.256 --> 00:26:32.991 align:center line:74% position:40% size:75%
WHEN THEY THOUGHT IT WOULD BE 

00:26:32.991 --> 00:26:38.163 align:center line:74% position:12% size:15%
SAFE. 

00:26:38.163 --> 00:26:39.965 align:center line:74% position:44% size:78%
AND MARKET IN THE BUSES AROUND 

00:26:39.965 --> 00:26:47.172 align:center line:74% position:50% size:80%
THE CONTRACTORS LOT THAT'S WHAT 

00:26:47.172 --> 00:26:49.341 align:center line:74% position:44% size:78%
IT TOOK TO GET THE KIDS OUT OF 

00:26:49.341 --> 00:26:51.843 align:center line:74% position:50% size:80%
SCHOOL BUT WE HAVE BEEN WORKING 

00:26:51.843 --> 00:26:53.979 align:center line:74% position:50% size:80%
TO SEE HOW DO WE MAKE SURE THAT 

00:26:53.979 --> 00:27:04.189 align:center line:74% position:14% size:30%
THE ROUTES. 

00:27:09.561 --> 00:27:10.662 align:center line:74% position:31% size:68%
WE HAVE ISSUES THAT WE ARE 

00:27:10.662 --> 00:27:12.030 align:center line:74% position:25% size:60%
GOING OUT TO HELP THOSE 

00:27:12.030 --> 00:27:15.000 align:center line:74% position:14% size:28%
LOCATIONS. 

00:27:15.000 --> 00:27:16.368 align:center line:74% position:29% size:65%
WE ARE TRYING TO HELP GET 

00:27:16.368 --> 00:27:18.403 align:center line:74% position:33% size:70%
EVERYBODY BACK AND RUNNING. 

00:27:18.403 --> 00:27:24.976 align:center line:74% position:50% size:80%
&gt;&gt; SO WE WILL PUSH FOR TOMORROW?

00:27:24.976 --> 00:27:27.012 align:center line:74% position:44% size:78%
&gt;&gt; I DO NOT KNOW THE ANSWER TO 

00:27:27.012 --> 00:27:27.412 align:center line:74% position:12% size:15%
THAT. 

00:27:27.412 --> 00:27:28.613 align:center line:74% position:44% size:78%
THEY WILL HAVE TO SS BECAUSE A 

00:27:28.613 --> 00:27:30.415 align:center line:74% position:27% size:63%
LOT OF THEIR BUSES GO ON 

00:27:30.415 --> 00:27:31.616 align:center line:74% position:50% size:80%
ARTERIALS BUT THEY WILL HAVE TO 

00:27:31.616 --> 00:27:35.220 align:center line:74% position:44% size:78%
MAKE SURE THAT PARENTS CAN GET 

00:27:35.220 --> 00:27:36.421 align:center line:74% position:33% size:70%
KIDS TO WHERE THE BUSES ARE 

00:27:36.421 --> 00:27:36.921 align:center line:74% position:14% size:30%
PICKING UP. 

00:27:36.921 --> 00:27:38.523 align:center line:74% position:50% size:80%
WE WILL TRY TO GET AN UPDATE ON 

00:27:38.523 --> 00:27:39.591 align:center line:74% position:31% size:68%
THAT AND ENCOURAGE THEM TO 

00:27:39.591 --> 00:27:40.792 align:center line:74% position:18% size:45%
REACH OUT TO YOU. 

00:27:40.792 --> 00:27:42.193 align:center line:74% position:36% size:73%
&gt;&gt; YOU SAID THAT RESIDENTIAL 

00:27:42.193 --> 00:27:45.296 align:center line:74% position:36% size:73%
AREAS ARE NOT A PRIORITY FOR 

00:27:45.296 --> 00:27:49.000 align:center line:74% position:33% size:70%
SNOWPLOWS BECAUSE OF SAFETY 

00:27:49.000 --> 00:27:55.740 align:center line:74% position:13% size:25%
CONCERNS. 

00:27:55.740 --> 00:27:58.910 align:center line:74% position:40% size:75%
&gt;&gt; THEY ARE A PRIORITY BUT WE 

00:27:58.910 --> 00:28:00.845 align:center line:74% position:24% size:58%
HAVE TO ASSESS ALL THE 

00:28:00.845 --> 00:28:04.649 align:center line:74% position:33% size:70%
RESIDENTIAL ROADS AND WHICH 

00:28:04.649 --> 00:28:06.284 align:center line:74% position:50% size:80%
ONES CAN BE CLEARED MOST SAFELY 

00:28:06.284 --> 00:28:10.855 align:center line:74% position:12% size:18%
FIRST. 

00:28:10.855 --> 00:28:11.656 align:center line:74% position:24% size:58%
THEY ARE ASSESSING IT. 

00:28:11.656 --> 00:28:13.024 align:center line:74% position:33% size:70%
DURING UP TO THIS POINT THE 

00:28:13.024 --> 00:28:15.927 align:center line:74% position:50% size:80%
PRIMARY ROUTES WITH THE CLEARING

00:28:15.927 --> 00:28:21.966 align:center line:74% position:33% size:70%
FOR FIRE RESCUE AND POLICE. 

00:28:21.966 --> 00:28:23.034 align:center line:74% position:36% size:73%
WE WILL CONTINUE TO GET INTO 

00:28:23.034 --> 00:28:23.835 align:center line:74% position:24% size:58%
THE RESIDENTIAL AREAS. 

00:28:23.835 --> 00:28:24.969 align:center line:74% position:36% size:73%
WE HAVE A LOT OF RESIDENTIAL 

00:28:24.969 --> 00:28:26.671 align:center line:74% position:50% size:80%
STREETS HERE SO WE WON'T GET TO 

00:28:26.671 --> 00:28:31.476 align:center line:74% position:14% size:28%
EVERYBODY. 

00:28:31.476 --> 00:28:34.879 align:center line:74% position:44% size:78%
AGAIN, I WANT TO ECHO WHAT SAM 

00:28:34.879 --> 00:28:35.113 align:center line:74% position:12% size:15%
SAID. 

00:28:35.113 --> 00:28:37.782 align:center line:74% position:44% size:78%
THERE WILL REMAIN STREETS THAT 

00:28:37.782 --> 00:28:41.853 align:center line:74% position:14% size:30%
ARE CLOSED. 

00:28:41.853 --> 00:28:45.290 align:center line:74% position:29% size:65%
DOES ROAD CLOSED SIGNS DO 

00:28:45.290 --> 00:28:47.025 align:center line:74% position:50% size:80%
REALLY MEAN THE ROAD IS CLOSED. 

00:28:47.025 --> 00:28:50.662 align:center line:74% position:19% size:48%
SO LET'S BE SMART. 

00:28:50.662 --> 00:28:54.666 align:center line:74% position:50% size:80%
TRY TO STAY OFF THE ROAD AND IF 

00:28:54.666 --> 00:28:56.101 align:center line:74% position:50% size:80%
YOU DO THAT WE WILL GET THROUGH 

00:28:56.101 --> 00:29:00.905 align:center line:74% position:50% size:80%
THIS BUT IT WILL TAKE SOME TIME 

00:29:00.905 --> 00:29:02.373 align:center line:74% position:33% size:70%
FOR ALL OF THE AREAS TO GET 

00:29:02.373 --> 00:29:02.607 align:center line:74% position:12% size:18%
CLEAR. 

00:29:02.607 --> 00:29:03.475 align:center line:74% position:19% size:48%
WE WILL GET TO IT. 

00:29:03.475 --> 00:29:04.275 align:center line:74% position:29% size:65%
IF THERE'S A PARTICULARLY 

00:29:04.275 --> 00:29:08.813 align:center line:74% position:44% size:78%
UNSAFE AREA REPORT THAT TO US. 

00:29:08.813 --> 00:29:14.319 align:center line:74% position:50% size:80%
&gt;&gt; I THINK YOU SAID THE DRIVERS 

00:29:14.319 --> 00:29:15.286 align:center line:74% position:33% size:70%
VISIBILITY WITH KIDS ON THE 

00:29:15.286 --> 00:29:16.221 align:center line:74% position:50% size:80%
RESIDENTIAL AREAS IS A PROBLEM. 

00:29:16.221 --> 00:29:17.722 align:center line:74% position:33% size:70%
IS THAT BECAUSE OF SLIDING? 

00:29:17.722 --> 00:29:24.796 align:center line:74% position:18% size:45%
IS THAT AN ISSUE? 

00:29:24.796 --> 00:29:26.197 align:center line:74% position:50% size:80%
&gt;&gt; SOME OF THE STREETS ARE WIDE 

00:29:26.197 --> 00:29:27.532 align:center line:74% position:40% size:75%
AND SOME ARE VERY NARROW WITH 

00:29:27.532 --> 00:29:28.533 align:center line:74% position:31% size:68%
CARS PARKED ON BOTH SIDES. 

00:29:28.533 --> 00:29:31.102 align:center line:74% position:44% size:78%
WHEN KIDS ARE OUT OF SCHOOL IF 

00:29:31.102 --> 00:29:35.306 align:center line:74% position:50% size:80%
YOU'RE TRYING TO SEE WHICH ROAD 

00:29:35.306 --> 00:29:36.741 align:center line:74% position:50% size:80%
TO PLOW DOWN AND YOU CANNOT SEE 

00:29:36.741 --> 00:29:37.742 align:center line:74% position:44% size:78%
BECAUSE OF PARKED CARS WE HAVE 

00:29:37.742 --> 00:29:39.010 align:center line:74% position:40% size:75%
TO TAKE THAT INTO ASSESSMENT. 

00:29:39.010 --> 00:29:41.446 align:center line:74% position:31% size:68%
WE ALSO WANT PARENTS TO BE 

00:29:41.446 --> 00:29:42.447 align:center line:74% position:50% size:80%
AWARE BECAUSE KIDS ARE PROBABLY 

00:29:42.447 --> 00:29:43.515 align:center line:74% position:36% size:73%
AT THEIR MOST RESTLESS RIGHT 

00:29:43.515 --> 00:29:44.949 align:center line:74% position:27% size:63%
NOW AND PARENTS THE MOST 

00:29:44.949 --> 00:29:45.283 align:center line:74% position:15% size:33%
EXASPERATED. 

00:29:45.283 --> 00:29:54.259 align:center line:74% position:29% size:65%
A LOT OF PEOPLE HAVE MAKE 

00:29:54.259 --> 00:29:55.260 align:center line:74% position:31% size:68%
MISSED WORK BECAUSE OF THE 

00:29:55.260 --> 00:29:56.661 align:center line:74% position:33% size:70%
STORM SO MAKE SURE THAT THE 

00:29:56.661 --> 00:29:57.929 align:center line:74% position:50% size:80%
KIDS ARE NOT TRYING TO GET THAT 

00:29:57.929 --> 00:29:59.364 align:center line:74% position:50% size:80%
LAST BIT OF SNOW ARE SLIDING IN 

00:29:59.364 --> 00:30:00.965 align:center line:74% position:44% size:78%
AND THE PLACE THAT'S NOT SAFE. 

00:30:00.965 --> 00:30:02.367 align:center line:74% position:44% size:78%
&gt;&gt; THERE WAS A LOT OF EMPHASIS 

00:30:02.367 --> 00:30:03.234 align:center line:74% position:27% size:63%
TODAY ABOUT STORM DRAINS 

00:30:03.234 --> 00:30:03.635 align:center line:74% position:17% size:43%
GETTING CLEARED. 

00:30:03.635 --> 00:30:06.271 align:center line:74% position:33% size:70%
ON A LOT OF STREETS THERE'S 

00:30:06.271 --> 00:30:07.372 align:center line:74% position:17% size:43%
APARTMENT UNITS. 

00:30:07.372 --> 00:30:10.942 align:center line:74% position:22% size:55%
WHO IS RESPONSE WHOSE 

00:30:10.942 --> 00:30:12.477 align:center line:74% position:33% size:70%
RESPONSIBILITY IS IT TO GET 

00:30:12.477 --> 00:30:17.582 align:center line:74% position:50% size:80%
THOSE DRAINS CLEARED WHEN IT IS 

00:30:17.582 --> 00:30:18.483 align:center line:74% position:22% size:55%
A LITTLE BIT UNCLEAR? 

00:30:18.483 --> 00:30:20.285 align:center line:74% position:50% size:80%
&gt;&gt; WE ARE TRYING TO HIT AS MANY 

00:30:20.285 --> 00:30:21.085 align:center line:74% position:24% size:58%
OF THE STORM DRAINS AS 

00:30:21.085 --> 00:30:21.386 align:center line:74% position:13% size:25%
POSSIBLE. 

00:30:21.386 --> 00:30:22.487 align:center line:74% position:50% size:80%
PARKS ARE GOING AROUND AND SDOT 

00:30:22.487 --> 00:30:28.359 align:center line:74% position:50% size:80%
IS HITTING THERE'S . IF YOU SEE 

00:30:28.359 --> 00:30:29.594 align:center line:74% position:21% size:53%
A STORM DRAIN IN HER 

00:30:29.594 --> 00:30:30.562 align:center line:74% position:40% size:75%
NEIGHBORHOOD AND YOU CAN CALL 

00:30:30.562 --> 00:30:41.039 align:center line:74% position:31% size:68%
SAFELY CLEAR PLEASE CLEAR. 

00:30:41.773 --> 00:30:42.807 align:center line:74% position:40% size:75%
&gt;&gt; IS THERE AN OBLIGATION FOR 

00:30:42.807 --> 00:30:45.810 align:center line:74% position:50% size:80%
HOMEOWNERS TO CLEAR THE SIDEWALK

00:30:45.810 --> 00:30:47.412 align:center line:74% position:40% size:75%
. IT WOULD BE NICE TO HAVE IT 

00:30:47.412 --> 00:30:49.480 align:center line:74% position:50% size:80%
DONE BUT IS THERE AN OBLIGATION?

00:30:49.480 --> 00:30:50.915 align:center line:74% position:50% size:80%
&gt;&gt; MAINTENANCE OF THE SIDEWALKS 

00:30:50.915 --> 00:30:53.985 align:center line:74% position:50% size:80%
ARE THE RESPONSIBILITIES OF THE 

00:30:53.985 --> 00:30:54.519 align:center line:74% position:27% size:63%
ADJACENT PROPERTY OWNER. 

00:30:54.519 --> 00:30:56.054 align:center line:74% position:44% size:78%
IF YOU HAVE A SIDEWALK OUTSIDE 

00:30:56.054 --> 00:30:57.922 align:center line:74% position:31% size:68%
HER HOUSE IF YOU ARE MULTI 

00:30:57.922 --> 00:31:02.660 align:center line:74% position:50% size:80%
FAMILY IT IS YOUR OBLIGATION TO 

00:31:02.660 --> 00:31:05.396 align:center line:74% position:31% size:68%
KEEP THAT CLEAR AND CLEAN. 

00:31:05.396 --> 00:31:05.997 align:center line:74% position:40% size:75%
THAT IS NOT JUST FOR SNOW AND 

00:31:05.997 --> 00:31:07.865 align:center line:74% position:11% size:13%
ICE. 

00:31:07.865 --> 00:31:08.633 align:center line:74% position:31% size:68%
THAT MEANS KEEP IT IN GOOD 

00:31:08.633 --> 00:31:10.168 align:center line:74% position:44% size:78%
REPAIR MAKE SURE THE ROOTS ARE 

00:31:10.168 --> 00:31:11.436 align:center line:74% position:36% size:73%
NOT PUSHING SIDEWALKS UP AND 

00:31:11.436 --> 00:31:12.403 align:center line:74% position:50% size:80%
MAKE SURE PEOPLE WILL NOT TRIP. 

00:31:12.403 --> 00:31:14.038 align:center line:74% position:50% size:80%
IN THIS INCIDENT WE ARE TALKING 

00:31:14.038 --> 00:31:19.344 align:center line:74% position:21% size:53%
ABOUT THE SHOVELING. 

00:31:19.344 --> 00:31:20.411 align:center line:74% position:36% size:73%
IT IS ALSO WHAT IS THE RIGHT 

00:31:20.411 --> 00:31:22.146 align:center line:74% position:36% size:73%
THING TO DO FOR YOU AND YOUR 

00:31:22.146 --> 00:31:26.651 align:center line:74% position:14% size:28%
NEIGHBORS. 

00:31:26.651 --> 00:31:27.352 align:center line:74% position:21% size:53%
THANK YOU VERY MUCH. 

